<?xml version="1.0" encoding="UTF-8" standalone="no" ?>
<gpx xmlns="http://www.topografix.com/GPX/1/1" xmlns:xsi="http://www.w3.org/2001/XMLSchema-instance" xsi:schemaLocation="http://www.topografix.com/GPX/1/1 http://www.topografix.com/GPX/1/1/gpx.xsd" version="1.1" creator="VisuGPX - https://www.visugpx.com">
  <metadata>
    <name>SAUMANE-VIERE</name>
    <desc><![CDATA[Les copains randonneurs du 04
au départ de Saumane, monter directement à La Gardette
]]></desc>
  </metadata>
  <trk>
    <name><![CDATA[SAUMANE-VIERE:30:50]]></name>
    <trkseg>
      <trkpt lat="44.09023" lon="5.69092">
        <ele>849.94</ele>
        <time>2020-03-12T07:41:01Z</time>
      </trkpt>
      <trkpt lat="44.09025" lon="5.69093">
        <ele>849.94</ele>
        <time>2020-03-12T07:41:02Z</time>
      </trkpt>
      <trkpt lat="44.09023" lon="5.69091">
        <ele>850.42</ele>
        <time>2020-03-12T07:41:21Z</time>
      </trkpt>
      <trkpt lat="44.09022" lon="5.69097">
        <ele>850.42</ele>
        <time>2020-03-12T07:41:36Z</time>
      </trkpt>
      <trkpt lat="44.09023" lon="5.69096">
        <ele>850.9</ele>
        <time>2020-03-12T07:41:59Z</time>
      </trkpt>
      <trkpt lat="44.09022" lon="5.69095">
        <ele>850.9</ele>
        <time>2020-03-12T07:42:16Z</time>
      </trkpt>
      <trkpt lat="44.09024" lon="5.69097">
        <ele>851.38</ele>
        <time>2020-03-12T07:42:37Z</time>
      </trkpt>
      <trkpt lat="44.09025" lon="5.69095">
        <ele>851.87</ele>
        <time>2020-03-12T07:42:55Z</time>
      </trkpt>
      <trkpt lat="44.09025" lon="5.69095">
        <ele>848.02</ele>
        <time>2020-03-12T07:42:56Z</time>
      </trkpt>
      <trkpt lat="44.09025" lon="5.69095">
        <ele>852.83</ele>
        <time>2020-03-12T07:42:57Z</time>
      </trkpt>
      <trkpt lat="44.09027" lon="5.69097">
        <ele>851.87</ele>
        <time>2020-03-12T07:43:22Z</time>
      </trkpt>
      <trkpt lat="44.09029" lon="5.69096">
        <ele>852.35</ele>
        <time>2020-03-12T07:43:41Z</time>
      </trkpt>
      <trkpt lat="44.09025" lon="5.69096">
        <ele>852.83</ele>
        <time>2020-03-12T07:44:02Z</time>
      </trkpt>
      <trkpt lat="44.09024" lon="5.69095">
        <ele>853.31</ele>
        <time>2020-03-12T07:44:19Z</time>
      </trkpt>
      <trkpt lat="44.09023" lon="5.69095">
        <ele>853.31</ele>
        <time>2020-03-12T07:44:39Z</time>
      </trkpt>
      <trkpt lat="44.09025" lon="5.69096">
        <ele>853.79</ele>
        <time>2020-03-12T07:45:03Z</time>
      </trkpt>
      <trkpt lat="44.09025" lon="5.6909">
        <ele>853.31</ele>
        <time>2020-03-12T07:45:27Z</time>
      </trkpt>
      <trkpt lat="44.09031" lon="5.69092">
        <ele>853.79</ele>
        <time>2020-03-12T07:45:42Z</time>
      </trkpt>
      <trkpt lat="44.09044" lon="5.69088">
        <ele>853.79</ele>
        <time>2020-03-12T07:45:59Z</time>
      </trkpt>
      <trkpt lat="44.09048" lon="5.69086">
        <ele>853.79</ele>
        <time>2020-03-12T07:46:03Z</time>
      </trkpt>
      <trkpt lat="44.09062" lon="5.69078">
        <ele>853.31</ele>
        <time>2020-03-12T07:46:20Z</time>
      </trkpt>
      <trkpt lat="44.09081" lon="5.69068">
        <ele>853.31</ele>
        <time>2020-03-12T07:46:39Z</time>
      </trkpt>
      <trkpt lat="44.09104" lon="5.69065">
        <ele>852.83</ele>
        <time>2020-03-12T07:46:58Z</time>
      </trkpt>
      <trkpt lat="44.09129" lon="5.69064">
        <ele>853.31</ele>
        <time>2020-03-12T07:47:20Z</time>
      </trkpt>
      <trkpt lat="44.09145" lon="5.6906">
        <ele>853.31</ele>
        <time>2020-03-12T07:47:38Z</time>
      </trkpt>
      <trkpt lat="44.09153" lon="5.69057">
        <ele>854.75</ele>
        <time>2020-03-12T07:47:44Z</time>
      </trkpt>
      <trkpt lat="44.09167" lon="5.69048">
        <ele>855.71</ele>
        <time>2020-03-12T07:47:58Z</time>
      </trkpt>
      <trkpt lat="44.09181" lon="5.69058">
        <ele>857.63</ele>
        <time>2020-03-12T07:48:13Z</time>
      </trkpt>
      <trkpt lat="44.09194" lon="5.69066">
        <ele>859.56</ele>
        <time>2020-03-12T07:48:28Z</time>
      </trkpt>
      <trkpt lat="44.09203" lon="5.69064">
        <ele>861</ele>
        <time>2020-03-12T07:48:38Z</time>
      </trkpt>
      <trkpt lat="44.09212" lon="5.69046">
        <ele>861.48</ele>
        <time>2020-03-12T07:48:53Z</time>
      </trkpt>
      <trkpt lat="44.09225" lon="5.69026">
        <ele>861.96</ele>
        <time>2020-03-12T07:49:11Z</time>
      </trkpt>
      <trkpt lat="44.09238" lon="5.69005">
        <ele>862.44</ele>
        <time>2020-03-12T07:49:29Z</time>
      </trkpt>
      <trkpt lat="44.09248" lon="5.68976">
        <ele>862.92</ele>
        <time>2020-03-12T07:49:50Z</time>
      </trkpt>
      <trkpt lat="44.09247" lon="5.68951">
        <ele>862.44</ele>
        <time>2020-03-12T07:50:07Z</time>
      </trkpt>
      <trkpt lat="44.09245" lon="5.68925">
        <ele>862.44</ele>
        <time>2020-03-12T07:50:23Z</time>
      </trkpt>
      <trkpt lat="44.0924" lon="5.68895">
        <ele>862.44</ele>
        <time>2020-03-12T07:50:43Z</time>
      </trkpt>
      <trkpt lat="44.09232" lon="5.68869">
        <ele>862.44</ele>
        <time>2020-03-12T07:51:03Z</time>
      </trkpt>
      <trkpt lat="44.09225" lon="5.68843">
        <ele>864.36</ele>
        <time>2020-03-12T07:51:21Z</time>
      </trkpt>
      <trkpt lat="44.09226" lon="5.68816">
        <ele>865.8</ele>
        <time>2020-03-12T07:51:39Z</time>
      </trkpt>
      <trkpt lat="44.09233" lon="5.68812">
        <ele>866.77</ele>
        <time>2020-03-12T07:51:47Z</time>
      </trkpt>
      <trkpt lat="44.09242" lon="5.68799">
        <ele>868.21</ele>
        <time>2020-03-12T07:52:00Z</time>
      </trkpt>
      <trkpt lat="44.09252" lon="5.6878">
        <ele>869.17</ele>
        <time>2020-03-12T07:52:17Z</time>
      </trkpt>
      <trkpt lat="44.09263" lon="5.68757">
        <ele>870.61</ele>
        <time>2020-03-12T07:52:36Z</time>
      </trkpt>
      <trkpt lat="44.09269" lon="5.68734">
        <ele>871.57</ele>
        <time>2020-03-12T07:52:53Z</time>
      </trkpt>
      <trkpt lat="44.0927" lon="5.68731">
        <ele>871.57</ele>
        <time>2020-03-12T07:52:55Z</time>
      </trkpt>
      <trkpt lat="44.09265" lon="5.68709">
        <ele>873.01</ele>
        <time>2020-03-12T07:53:13Z</time>
      </trkpt>
      <trkpt lat="44.09263" lon="5.68687">
        <ele>874.46</ele>
        <time>2020-03-12T07:53:30Z</time>
      </trkpt>
      <trkpt lat="44.09262" lon="5.68669">
        <ele>875.42</ele>
        <time>2020-03-12T07:53:46Z</time>
      </trkpt>
      <trkpt lat="44.09261" lon="5.68649">
        <ele>877.34</ele>
        <time>2020-03-12T07:54:03Z</time>
      </trkpt>
      <trkpt lat="44.09254" lon="5.68632">
        <ele>878.78</ele>
        <time>2020-03-12T07:54:17Z</time>
      </trkpt>
      <trkpt lat="44.09242" lon="5.68624">
        <ele>880.71</ele>
        <time>2020-03-12T07:54:33Z</time>
      </trkpt>
      <trkpt lat="44.09244" lon="5.68624">
        <ele>881.19</ele>
        <time>2020-03-12T07:54:52Z</time>
      </trkpt>
      <trkpt lat="44.09243" lon="5.68623">
        <ele>877.82</ele>
        <time>2020-03-12T07:55:04Z</time>
      </trkpt>
      <trkpt lat="44.09243" lon="5.68622">
        <ele>881.19</ele>
        <time>2020-03-12T07:55:06Z</time>
      </trkpt>
      <trkpt lat="44.09243" lon="5.68622">
        <ele>881.19</ele>
        <time>2020-03-12T07:55:07Z</time>
      </trkpt>
      <trkpt lat="44.09241" lon="5.68623">
        <ele>881.19</ele>
        <time>2020-03-12T07:55:17Z</time>
      </trkpt>
      <trkpt lat="44.09241" lon="5.68621">
        <ele>881.19</ele>
        <time>2020-03-12T07:55:34Z</time>
      </trkpt>
      <trkpt lat="44.09238" lon="5.68615">
        <ele>882.15</ele>
        <time>2020-03-12T07:55:47Z</time>
      </trkpt>
      <trkpt lat="44.0924" lon="5.68613">
        <ele>883.11</ele>
        <time>2020-03-12T07:56:06Z</time>
      </trkpt>
      <trkpt lat="44.0924" lon="5.68612">
        <ele>883.11</ele>
        <time>2020-03-12T07:56:33Z</time>
      </trkpt>
      <trkpt lat="44.0924" lon="5.6861">
        <ele>883.59</ele>
        <time>2020-03-12T07:57:04Z</time>
      </trkpt>
      <trkpt lat="44.0924" lon="5.68595">
        <ele>885.51</ele>
        <time>2020-03-12T07:57:20Z</time>
      </trkpt>
      <trkpt lat="44.09233" lon="5.68581">
        <ele>888.88</ele>
        <time>2020-03-12T07:57:36Z</time>
      </trkpt>
      <trkpt lat="44.09227" lon="5.6857">
        <ele>890.8</ele>
        <time>2020-03-12T07:57:51Z</time>
      </trkpt>
      <trkpt lat="44.09222" lon="5.68567">
        <ele>892.24</ele>
        <time>2020-03-12T07:58:08Z</time>
      </trkpt>
      <trkpt lat="44.09224" lon="5.68566">
        <ele>892.72</ele>
        <time>2020-03-12T07:58:33Z</time>
      </trkpt>
      <trkpt lat="44.09225" lon="5.68565">
        <ele>892.72</ele>
        <time>2020-03-12T07:58:59Z</time>
      </trkpt>
      <trkpt lat="44.09225" lon="5.68566">
        <ele>893.2</ele>
        <time>2020-03-12T07:59:26Z</time>
      </trkpt>
      <trkpt lat="44.09222" lon="5.68558">
        <ele>894.16</ele>
        <time>2020-03-12T07:59:45Z</time>
      </trkpt>
      <trkpt lat="44.09217" lon="5.68545">
        <ele>896.09</ele>
        <time>2020-03-12T08:00:00Z</time>
      </trkpt>
      <trkpt lat="44.09212" lon="5.6853">
        <ele>898.97</ele>
        <time>2020-03-12T08:00:16Z</time>
      </trkpt>
      <trkpt lat="44.09206" lon="5.68519">
        <ele>900.89</ele>
        <time>2020-03-12T08:00:30Z</time>
      </trkpt>
      <trkpt lat="44.09201" lon="5.68506">
        <ele>902.82</ele>
        <time>2020-03-12T08:00:46Z</time>
      </trkpt>
      <trkpt lat="44.09196" lon="5.68491">
        <ele>906.18</ele>
        <time>2020-03-12T08:01:02Z</time>
      </trkpt>
      <trkpt lat="44.09192" lon="5.68475">
        <ele>909.06</ele>
        <time>2020-03-12T08:01:21Z</time>
      </trkpt>
      <trkpt lat="44.09189" lon="5.68461">
        <ele>911.95</ele>
        <time>2020-03-12T08:01:39Z</time>
      </trkpt>
      <trkpt lat="44.09187" lon="5.68449">
        <ele>914.83</ele>
        <time>2020-03-12T08:01:56Z</time>
      </trkpt>
      <trkpt lat="44.09187" lon="5.68439">
        <ele>917.24</ele>
        <time>2020-03-12T08:02:11Z</time>
      </trkpt>
      <trkpt lat="44.09183" lon="5.68426">
        <ele>920.6</ele>
        <time>2020-03-12T08:02:31Z</time>
      </trkpt>
      <trkpt lat="44.09182" lon="5.68411">
        <ele>923.48</ele>
        <time>2020-03-12T08:02:50Z</time>
      </trkpt>
      <trkpt lat="44.09178" lon="5.68399">
        <ele>926.85</ele>
        <time>2020-03-12T08:03:10Z</time>
      </trkpt>
      <trkpt lat="44.09174" lon="5.68391">
        <ele>928.77</ele>
        <time>2020-03-12T08:03:27Z</time>
      </trkpt>
      <trkpt lat="44.09167" lon="5.68381">
        <ele>930.69</ele>
        <time>2020-03-12T08:03:44Z</time>
      </trkpt>
      <trkpt lat="44.09163" lon="5.68382">
        <ele>931.65</ele>
        <time>2020-03-12T08:04:04Z</time>
      </trkpt>
      <trkpt lat="44.09161" lon="5.6837">
        <ele>933.1</ele>
        <time>2020-03-12T08:04:20Z</time>
      </trkpt>
      <trkpt lat="44.09157" lon="5.68354">
        <ele>936.46</ele>
        <time>2020-03-12T08:04:36Z</time>
      </trkpt>
      <trkpt lat="44.09153" lon="5.68346">
        <ele>938.86</ele>
        <time>2020-03-12T08:04:55Z</time>
      </trkpt>
      <trkpt lat="44.09154" lon="5.68348">
        <ele>939.35</ele>
        <time>2020-03-12T08:05:15Z</time>
      </trkpt>
      <trkpt lat="44.09155" lon="5.68346">
        <ele>939.83</ele>
        <time>2020-03-12T08:05:34Z</time>
      </trkpt>
      <trkpt lat="44.09147" lon="5.68329">
        <ele>941.27</ele>
        <time>2020-03-12T08:05:53Z</time>
      </trkpt>
      <trkpt lat="44.0914" lon="5.68316">
        <ele>944.15</ele>
        <time>2020-03-12T08:06:10Z</time>
      </trkpt>
      <trkpt lat="44.09133" lon="5.68302">
        <ele>945.59</ele>
        <time>2020-03-12T08:06:26Z</time>
      </trkpt>
      <trkpt lat="44.09125" lon="5.68289">
        <ele>948.96</ele>
        <time>2020-03-12T08:06:42Z</time>
      </trkpt>
      <trkpt lat="44.09119" lon="5.68275">
        <ele>951.84</ele>
        <time>2020-03-12T08:07:00Z</time>
      </trkpt>
      <trkpt lat="44.09115" lon="5.6826">
        <ele>955.69</ele>
        <time>2020-03-12T08:07:19Z</time>
      </trkpt>
      <trkpt lat="44.09112" lon="5.68248">
        <ele>958.57</ele>
        <time>2020-03-12T08:07:34Z</time>
      </trkpt>
      <trkpt lat="44.0911" lon="5.6823">
        <ele>961.94</ele>
        <time>2020-03-12T08:07:53Z</time>
      </trkpt>
      <trkpt lat="44.09112" lon="5.68216">
        <ele>964.82</ele>
        <time>2020-03-12T08:08:10Z</time>
      </trkpt>
      <trkpt lat="44.09113" lon="5.68199">
        <ele>968.18</ele>
        <time>2020-03-12T08:08:28Z</time>
      </trkpt>
      <trkpt lat="44.09116" lon="5.68185">
        <ele>971.07</ele>
        <time>2020-03-12T08:08:45Z</time>
      </trkpt>
      <trkpt lat="44.09114" lon="5.68181">
        <ele>972.51</ele>
        <time>2020-03-12T08:09:03Z</time>
      </trkpt>
      <trkpt lat="44.09116" lon="5.68179">
        <ele>972.99</ele>
        <time>2020-03-12T08:09:19Z</time>
      </trkpt>
      <trkpt lat="44.0912" lon="5.68178">
        <ele>973.47</ele>
        <time>2020-03-12T08:09:45Z</time>
      </trkpt>
      <trkpt lat="44.09126" lon="5.68176">
        <ele>975.88</ele>
        <time>2020-03-12T08:10:00Z</time>
      </trkpt>
      <trkpt lat="44.09134" lon="5.68167">
        <ele>979.24</ele>
        <time>2020-03-12T08:10:16Z</time>
      </trkpt>
      <trkpt lat="44.09144" lon="5.68159">
        <ele>982.6</ele>
        <time>2020-03-12T08:10:33Z</time>
      </trkpt>
      <trkpt lat="44.09153" lon="5.68145">
        <ele>985.49</ele>
        <time>2020-03-12T08:10:50Z</time>
      </trkpt>
      <trkpt lat="44.09157" lon="5.68144">
        <ele>985.97</ele>
        <time>2020-03-12T08:11:14Z</time>
      </trkpt>
      <trkpt lat="44.09153" lon="5.68147">
        <ele>986.45</ele>
        <time>2020-03-12T08:11:38Z</time>
      </trkpt>
      <trkpt lat="44.09158" lon="5.68146">
        <ele>986.93</ele>
        <time>2020-03-12T08:12:03Z</time>
      </trkpt>
      <trkpt lat="44.09158" lon="5.68144">
        <ele>987.41</ele>
        <time>2020-03-12T08:12:31Z</time>
      </trkpt>
      <trkpt lat="44.09158" lon="5.68145">
        <ele>987.41</ele>
        <time>2020-03-12T08:13:05Z</time>
      </trkpt>
      <trkpt lat="44.09162" lon="5.68133">
        <ele>988.37</ele>
        <time>2020-03-12T08:13:27Z</time>
      </trkpt>
      <trkpt lat="44.09169" lon="5.68117">
        <ele>991.26</ele>
        <time>2020-03-12T08:13:43Z</time>
      </trkpt>
      <trkpt lat="44.09178" lon="5.68101">
        <ele>993.66</ele>
        <time>2020-03-12T08:13:59Z</time>
      </trkpt>
      <trkpt lat="44.09183" lon="5.68089">
        <ele>996.54</ele>
        <time>2020-03-12T08:14:14Z</time>
      </trkpt>
      <trkpt lat="44.09191" lon="5.68082">
        <ele>998.47</ele>
        <time>2020-03-12T08:14:30Z</time>
      </trkpt>
      <trkpt lat="44.09192" lon="5.68084">
        <ele>998.95</ele>
        <time>2020-03-12T08:14:48Z</time>
      </trkpt>
      <trkpt lat="44.09202" lon="5.68077">
        <ele>1001.83</ele>
        <time>2020-03-12T08:15:04Z</time>
      </trkpt>
      <trkpt lat="44.09211" lon="5.68078">
        <ele>1004.23</ele>
        <time>2020-03-12T08:15:18Z</time>
      </trkpt>
      <trkpt lat="44.09221" lon="5.68074">
        <ele>1007.6</ele>
        <time>2020-03-12T08:15:33Z</time>
      </trkpt>
      <trkpt lat="44.09231" lon="5.68067">
        <ele>1010.96</ele>
        <time>2020-03-12T08:15:48Z</time>
      </trkpt>
      <trkpt lat="44.09243" lon="5.68065">
        <ele>1014.33</ele>
        <time>2020-03-12T08:16:04Z</time>
      </trkpt>
      <trkpt lat="44.09252" lon="5.68057">
        <ele>1017.21</ele>
        <time>2020-03-12T08:16:20Z</time>
      </trkpt>
      <trkpt lat="44.09259" lon="5.68052">
        <ele>1020.1</ele>
        <time>2020-03-12T08:16:35Z</time>
      </trkpt>
      <trkpt lat="44.09271" lon="5.68045">
        <ele>1022.5</ele>
        <time>2020-03-12T08:16:50Z</time>
      </trkpt>
      <trkpt lat="44.09276" lon="5.68041">
        <ele>1024.42</ele>
        <time>2020-03-12T08:17:08Z</time>
      </trkpt>
      <trkpt lat="44.09284" lon="5.68035">
        <ele>1027.79</ele>
        <time>2020-03-12T08:17:23Z</time>
      </trkpt>
      <trkpt lat="44.09294" lon="5.68029">
        <ele>1030.19</ele>
        <time>2020-03-12T08:17:40Z</time>
      </trkpt>
      <trkpt lat="44.09302" lon="5.6803">
        <ele>1033.55</ele>
        <time>2020-03-12T08:17:53Z</time>
      </trkpt>
      <trkpt lat="44.09312" lon="5.68024">
        <ele>1036.44</ele>
        <time>2020-03-12T08:18:09Z</time>
      </trkpt>
      <trkpt lat="44.09322" lon="5.6802">
        <ele>1038.84</ele>
        <time>2020-03-12T08:18:23Z</time>
      </trkpt>
      <trkpt lat="44.0933" lon="5.68022">
        <ele>1041.73</ele>
        <time>2020-03-12T08:18:37Z</time>
      </trkpt>
      <trkpt lat="44.09339" lon="5.6802">
        <ele>1045.09</ele>
        <time>2020-03-12T08:18:51Z</time>
      </trkpt>
      <trkpt lat="44.09349" lon="5.68018">
        <ele>1047.97</ele>
        <time>2020-03-12T08:19:06Z</time>
      </trkpt>
      <trkpt lat="44.09361" lon="5.68018">
        <ele>1050.86</ele>
        <time>2020-03-12T08:19:23Z</time>
      </trkpt>
      <trkpt lat="44.09369" lon="5.68015">
        <ele>1052.3</ele>
        <time>2020-03-12T08:19:41Z</time>
      </trkpt>
      <trkpt lat="44.09369" lon="5.68016">
        <ele>1053.26</ele>
        <time>2020-03-12T08:20:02Z</time>
      </trkpt>
      <trkpt lat="44.09369" lon="5.68016">
        <ele>1053.26</ele>
        <time>2020-03-12T08:20:21Z</time>
      </trkpt>
      <trkpt lat="44.09367" lon="5.68009">
        <ele>1053.74</ele>
        <time>2020-03-12T08:20:45Z</time>
      </trkpt>
      <trkpt lat="44.09374" lon="5.68014">
        <ele>1054.22</ele>
        <time>2020-03-12T08:21:19Z</time>
      </trkpt>
      <trkpt lat="44.09373" lon="5.68008">
        <ele>1054.22</ele>
        <time>2020-03-12T08:21:54Z</time>
      </trkpt>
      <trkpt lat="44.09375" lon="5.68014">
        <ele>1054.7</ele>
        <time>2020-03-12T08:22:16Z</time>
      </trkpt>
      <trkpt lat="44.09374" lon="5.68012">
        <ele>1055.18</ele>
        <time>2020-03-12T08:22:40Z</time>
      </trkpt>
      <trkpt lat="44.09372" lon="5.6801">
        <ele>1055.18</ele>
        <time>2020-03-12T08:23:13Z</time>
      </trkpt>
      <trkpt lat="44.09368" lon="5.68006">
        <ele>1055.67</ele>
        <time>2020-03-12T08:23:43Z</time>
      </trkpt>
      <trkpt lat="44.09369" lon="5.68005">
        <ele>1056.15</ele>
        <time>2020-03-12T08:24:20Z</time>
      </trkpt>
      <trkpt lat="44.09369" lon="5.68008">
        <ele>1056.63</ele>
        <time>2020-03-12T08:24:49Z</time>
      </trkpt>
      <trkpt lat="44.09372" lon="5.68007">
        <ele>1057.11</ele>
        <time>2020-03-12T08:25:19Z</time>
      </trkpt>
      <trkpt lat="44.09375" lon="5.68008">
        <ele>1057.11</ele>
        <time>2020-03-12T08:25:45Z</time>
      </trkpt>
      <trkpt lat="44.09374" lon="5.6801">
        <ele>1057.59</ele>
        <time>2020-03-12T08:26:07Z</time>
      </trkpt>
      <trkpt lat="44.09385" lon="5.68014">
        <ele>1059.99</ele>
        <time>2020-03-12T08:26:24Z</time>
      </trkpt>
      <trkpt lat="44.09396" lon="5.68015">
        <ele>1062.39</ele>
        <time>2020-03-12T08:26:40Z</time>
      </trkpt>
      <trkpt lat="44.09409" lon="5.68017">
        <ele>1065.76</ele>
        <time>2020-03-12T08:26:57Z</time>
      </trkpt>
      <trkpt lat="44.09423" lon="5.68017">
        <ele>1068.16</ele>
        <time>2020-03-12T08:27:16Z</time>
      </trkpt>
      <trkpt lat="44.09437" lon="5.68009">
        <ele>1071.05</ele>
        <time>2020-03-12T08:27:33Z</time>
      </trkpt>
      <trkpt lat="44.09449" lon="5.68008">
        <ele>1074.41</ele>
        <time>2020-03-12T08:27:50Z</time>
      </trkpt>
      <trkpt lat="44.09461" lon="5.68004">
        <ele>1076.33</ele>
        <time>2020-03-12T08:28:05Z</time>
      </trkpt>
      <trkpt lat="44.09478" lon="5.67999">
        <ele>1079.22</ele>
        <time>2020-03-12T08:28:26Z</time>
      </trkpt>
      <trkpt lat="44.09493" lon="5.67997">
        <ele>1081.62</ele>
        <time>2020-03-12T08:28:45Z</time>
      </trkpt>
      <trkpt lat="44.09504" lon="5.67993">
        <ele>1083.54</ele>
        <time>2020-03-12T08:29:00Z</time>
      </trkpt>
      <trkpt lat="44.09517" lon="5.67982">
        <ele>1085.95</ele>
        <time>2020-03-12T08:29:18Z</time>
      </trkpt>
      <trkpt lat="44.09527" lon="5.67975">
        <ele>1089.31</ele>
        <time>2020-03-12T08:29:31Z</time>
      </trkpt>
      <trkpt lat="44.0954" lon="5.67966">
        <ele>1091.71</ele>
        <time>2020-03-12T08:29:48Z</time>
      </trkpt>
      <trkpt lat="44.09549" lon="5.67958">
        <ele>1093.16</ele>
        <time>2020-03-12T08:30:02Z</time>
      </trkpt>
      <trkpt lat="44.09557" lon="5.67953">
        <ele>1095.08</ele>
        <time>2020-03-12T08:30:23Z</time>
      </trkpt>
      <trkpt lat="44.09562" lon="5.67947">
        <ele>1097</ele>
        <time>2020-03-12T08:30:37Z</time>
      </trkpt>
      <trkpt lat="44.09575" lon="5.6794">
        <ele>1099.4</ele>
        <time>2020-03-12T08:30:54Z</time>
      </trkpt>
      <trkpt lat="44.09583" lon="5.67935">
        <ele>1101.81</ele>
        <time>2020-03-12T08:31:14Z</time>
      </trkpt>
      <trkpt lat="44.096" lon="5.67932">
        <ele>1104.69</ele>
        <time>2020-03-12T08:31:33Z</time>
      </trkpt>
      <trkpt lat="44.09614" lon="5.67924">
        <ele>1108.06</ele>
        <time>2020-03-12T08:31:52Z</time>
      </trkpt>
      <trkpt lat="44.09621" lon="5.67916">
        <ele>1109.98</ele>
        <time>2020-03-12T08:32:05Z</time>
      </trkpt>
      <trkpt lat="44.09636" lon="5.67908">
        <ele>1112.38</ele>
        <time>2020-03-12T08:32:24Z</time>
      </trkpt>
      <trkpt lat="44.09648" lon="5.67899">
        <ele>1114.79</ele>
        <time>2020-03-12T08:32:42Z</time>
      </trkpt>
      <trkpt lat="44.09657" lon="5.67892">
        <ele>1117.19</ele>
        <time>2020-03-12T08:32:56Z</time>
      </trkpt>
      <trkpt lat="44.09666" lon="5.67883">
        <ele>1119.11</ele>
        <time>2020-03-12T08:33:14Z</time>
      </trkpt>
      <trkpt lat="44.09665" lon="5.67885">
        <ele>1119.11</ele>
        <time>2020-03-12T08:33:31Z</time>
      </trkpt>
      <trkpt lat="44.09677" lon="5.6788">
        <ele>1120.55</ele>
        <time>2020-03-12T08:33:45Z</time>
      </trkpt>
      <trkpt lat="44.09683" lon="5.67871">
        <ele>1122.96</ele>
        <time>2020-03-12T08:34:00Z</time>
      </trkpt>
      <trkpt lat="44.09692" lon="5.67863">
        <ele>1124.4</ele>
        <time>2020-03-12T08:34:27Z</time>
      </trkpt>
      <trkpt lat="44.097" lon="5.67858">
        <ele>1125.36</ele>
        <time>2020-03-12T08:34:45Z</time>
      </trkpt>
      <trkpt lat="44.09715" lon="5.67851">
        <ele>1126.8</ele>
        <time>2020-03-12T08:35:01Z</time>
      </trkpt>
      <trkpt lat="44.09721" lon="5.6785">
        <ele>1127.76</ele>
        <time>2020-03-12T08:35:06Z</time>
      </trkpt>
      <trkpt lat="44.09728" lon="5.67848">
        <ele>1128.73</ele>
        <time>2020-03-12T08:35:24Z</time>
      </trkpt>
      <trkpt lat="44.0973" lon="5.67848">
        <ele>1128.73</ele>
        <time>2020-03-12T08:35:37Z</time>
      </trkpt>
      <trkpt lat="44.09731" lon="5.67849">
        <ele>1128.73</ele>
        <time>2020-03-12T08:35:55Z</time>
      </trkpt>
      <trkpt lat="44.09741" lon="5.67861">
        <ele>1130.17</ele>
        <time>2020-03-12T08:36:13Z</time>
      </trkpt>
      <trkpt lat="44.09752" lon="5.67872">
        <ele>1132.57</ele>
        <time>2020-03-12T08:36:31Z</time>
      </trkpt>
      <trkpt lat="44.09761" lon="5.67877">
        <ele>1134.49</ele>
        <time>2020-03-12T08:36:48Z</time>
      </trkpt>
      <trkpt lat="44.09762" lon="5.67873">
        <ele>1135.45</ele>
        <time>2020-03-12T08:37:12Z</time>
      </trkpt>
      <trkpt lat="44.09761" lon="5.67875">
        <ele>1135.45</ele>
        <time>2020-03-12T08:37:25Z</time>
      </trkpt>
      <trkpt lat="44.09764" lon="5.67873">
        <ele>1135.45</ele>
        <time>2020-03-12T08:37:51Z</time>
      </trkpt>
      <trkpt lat="44.09765" lon="5.67873">
        <ele>1135.45</ele>
        <time>2020-03-12T08:38:16Z</time>
      </trkpt>
      <trkpt lat="44.09773" lon="5.67886">
        <ele>1137.38</ele>
        <time>2020-03-12T08:38:33Z</time>
      </trkpt>
      <trkpt lat="44.09788" lon="5.67894">
        <ele>1139.78</ele>
        <time>2020-03-12T08:38:49Z</time>
      </trkpt>
      <trkpt lat="44.09803" lon="5.67907">
        <ele>1142.18</ele>
        <time>2020-03-12T08:39:08Z</time>
      </trkpt>
      <trkpt lat="44.09812" lon="5.67916">
        <ele>1143.63</ele>
        <time>2020-03-12T08:39:24Z</time>
      </trkpt>
      <trkpt lat="44.09825" lon="5.67916">
        <ele>1144.59</ele>
        <time>2020-03-12T08:39:42Z</time>
      </trkpt>
      <trkpt lat="44.09844" lon="5.67913">
        <ele>1147.47</ele>
        <time>2020-03-12T08:40:01Z</time>
      </trkpt>
      <trkpt lat="44.0986" lon="5.67902">
        <ele>1149.39</ele>
        <time>2020-03-12T08:40:19Z</time>
      </trkpt>
      <trkpt lat="44.09867" lon="5.67897">
        <ele>1150.35</ele>
        <time>2020-03-12T08:40:39Z</time>
      </trkpt>
      <trkpt lat="44.09882" lon="5.67889">
        <ele>1152.28</ele>
        <time>2020-03-12T08:40:56Z</time>
      </trkpt>
      <trkpt lat="44.099" lon="5.67881">
        <ele>1154.68</ele>
        <time>2020-03-12T08:41:13Z</time>
      </trkpt>
      <trkpt lat="44.09904" lon="5.67881">
        <ele>1155.16</ele>
        <time>2020-03-12T08:41:16Z</time>
      </trkpt>
      <trkpt lat="44.0992" lon="5.67871">
        <ele>1157.56</ele>
        <time>2020-03-12T08:41:34Z</time>
      </trkpt>
      <trkpt lat="44.09936" lon="5.67863">
        <ele>1158.53</ele>
        <time>2020-03-12T08:41:49Z</time>
      </trkpt>
      <trkpt lat="44.0995" lon="5.67855">
        <ele>1159.97</ele>
        <time>2020-03-12T08:42:06Z</time>
      </trkpt>
      <trkpt lat="44.09962" lon="5.67851">
        <ele>1161.41</ele>
        <time>2020-03-12T08:42:22Z</time>
      </trkpt>
      <trkpt lat="44.0998" lon="5.67843">
        <ele>1163.33</ele>
        <time>2020-03-12T08:42:40Z</time>
      </trkpt>
      <trkpt lat="44.09995" lon="5.67828">
        <ele>1164.77</ele>
        <time>2020-03-12T08:42:59Z</time>
      </trkpt>
      <trkpt lat="44.09996" lon="5.67827">
        <ele>1164.77</ele>
        <time>2020-03-12T08:43:18Z</time>
      </trkpt>
      <trkpt lat="44.09992" lon="5.67826">
        <ele>1165.74</ele>
        <time>2020-03-12T08:43:42Z</time>
      </trkpt>
      <trkpt lat="44.09993" lon="5.67829">
        <ele>1165.74</ele>
        <time>2020-03-12T08:44:09Z</time>
      </trkpt>
      <trkpt lat="44.09993" lon="5.67833">
        <ele>1164.29</ele>
        <time>2020-03-12T08:44:31Z</time>
      </trkpt>
      <trkpt lat="44.09996" lon="5.67828">
        <ele>1164.29</ele>
        <time>2020-03-12T08:44:59Z</time>
      </trkpt>
      <trkpt lat="44.09998" lon="5.67826">
        <ele>1164.29</ele>
        <time>2020-03-12T08:45:22Z</time>
      </trkpt>
      <trkpt lat="44.10012" lon="5.67818">
        <ele>1167.18</ele>
        <time>2020-03-12T08:45:40Z</time>
      </trkpt>
      <trkpt lat="44.10026" lon="5.67807">
        <ele>1168.62</ele>
        <time>2020-03-12T08:45:58Z</time>
      </trkpt>
      <trkpt lat="44.10038" lon="5.67795">
        <ele>1170.06</ele>
        <time>2020-03-12T08:46:14Z</time>
      </trkpt>
      <trkpt lat="44.1005" lon="5.67782">
        <ele>1171.98</ele>
        <time>2020-03-12T08:46:30Z</time>
      </trkpt>
      <trkpt lat="44.10051" lon="5.6778">
        <ele>1171.98</ele>
        <time>2020-03-12T08:46:32Z</time>
      </trkpt>
      <trkpt lat="44.10064" lon="5.67764">
        <ele>1173.43</ele>
        <time>2020-03-12T08:46:50Z</time>
      </trkpt>
      <trkpt lat="44.10084" lon="5.67746">
        <ele>1174.87</ele>
        <time>2020-03-12T08:47:12Z</time>
      </trkpt>
      <trkpt lat="44.10101" lon="5.67731">
        <ele>1175.35</ele>
        <time>2020-03-12T08:47:30Z</time>
      </trkpt>
      <trkpt lat="44.10123" lon="5.67719">
        <ele>1175.35</ele>
        <time>2020-03-12T08:47:51Z</time>
      </trkpt>
      <trkpt lat="44.10134" lon="5.67708">
        <ele>1175.35</ele>
        <time>2020-03-12T08:48:04Z</time>
      </trkpt>
      <trkpt lat="44.1015" lon="5.67693">
        <ele>1175.35</ele>
        <time>2020-03-12T08:48:23Z</time>
      </trkpt>
      <trkpt lat="44.10167" lon="5.67691">
        <ele>1174.39</ele>
        <time>2020-03-12T08:48:43Z</time>
      </trkpt>
      <trkpt lat="44.10182" lon="5.67689">
        <ele>1173.91</ele>
        <time>2020-03-12T08:48:57Z</time>
      </trkpt>
      <trkpt lat="44.10204" lon="5.67683">
        <ele>1171.98</ele>
        <time>2020-03-12T08:49:17Z</time>
      </trkpt>
      <trkpt lat="44.10228" lon="5.67675">
        <ele>1170.54</ele>
        <time>2020-03-12T08:49:36Z</time>
      </trkpt>
      <trkpt lat="44.1025" lon="5.67667">
        <ele>1169.1</ele>
        <time>2020-03-12T08:49:56Z</time>
      </trkpt>
      <trkpt lat="44.10279" lon="5.6766">
        <ele>1168.14</ele>
        <time>2020-03-12T08:50:20Z</time>
      </trkpt>
      <trkpt lat="44.10305" lon="5.67653">
        <ele>1167.18</ele>
        <time>2020-03-12T08:50:40Z</time>
      </trkpt>
      <trkpt lat="44.10323" lon="5.6765">
        <ele>1167.66</ele>
        <time>2020-03-12T08:50:56Z</time>
      </trkpt>
      <trkpt lat="44.10335" lon="5.67646">
        <ele>1168.62</ele>
        <time>2020-03-12T08:51:07Z</time>
      </trkpt>
      <trkpt lat="44.10354" lon="5.67638">
        <ele>1169.1</ele>
        <time>2020-03-12T08:51:24Z</time>
      </trkpt>
      <trkpt lat="44.10377" lon="5.67623">
        <ele>1170.54</ele>
        <time>2020-03-12T08:51:46Z</time>
      </trkpt>
      <trkpt lat="44.10381" lon="5.67621">
        <ele>1170.54</ele>
        <time>2020-03-12T08:51:50Z</time>
      </trkpt>
      <trkpt lat="44.104" lon="5.67614">
        <ele>1171.02</ele>
        <time>2020-03-12T08:52:06Z</time>
      </trkpt>
      <trkpt lat="44.10421" lon="5.676">
        <ele>1171.5</ele>
        <time>2020-03-12T08:52:26Z</time>
      </trkpt>
      <trkpt lat="44.10442" lon="5.67591">
        <ele>1171.5</ele>
        <time>2020-03-12T08:52:44Z</time>
      </trkpt>
      <trkpt lat="44.10466" lon="5.67583">
        <ele>1171.98</ele>
        <time>2020-03-12T08:53:05Z</time>
      </trkpt>
      <trkpt lat="44.10487" lon="5.67577">
        <ele>1171.98</ele>
        <time>2020-03-12T08:53:25Z</time>
      </trkpt>
      <trkpt lat="44.10488" lon="5.67577">
        <ele>1171.98</ele>
        <time>2020-03-12T08:53:31Z</time>
      </trkpt>
      <trkpt lat="44.10508" lon="5.6757">
        <ele>1171.02</ele>
        <time>2020-03-12T08:53:49Z</time>
      </trkpt>
      <trkpt lat="44.1053" lon="5.67567">
        <ele>1171.02</ele>
        <time>2020-03-12T08:54:09Z</time>
      </trkpt>
      <trkpt lat="44.10549" lon="5.67565">
        <ele>1171.98</ele>
        <time>2020-03-12T08:54:29Z</time>
      </trkpt>
      <trkpt lat="44.10554" lon="5.67568">
        <ele>1171.98</ele>
        <time>2020-03-12T08:54:44Z</time>
      </trkpt>
      <trkpt lat="44.10555" lon="5.67569">
        <ele>1171.98</ele>
        <time>2020-03-12T08:54:53Z</time>
      </trkpt>
      <trkpt lat="44.10554" lon="5.67563">
        <ele>1171.98</ele>
        <time>2020-03-12T08:55:32Z</time>
      </trkpt>
      <trkpt lat="44.10554" lon="5.67562">
        <ele>1171.98</ele>
        <time>2020-03-12T08:55:49Z</time>
      </trkpt>
      <trkpt lat="44.10553" lon="5.67564">
        <ele>1172.47</ele>
        <time>2020-03-12T08:56:29Z</time>
      </trkpt>
      <trkpt lat="44.10555" lon="5.67563">
        <ele>1172.47</ele>
        <time>2020-03-12T08:57:15Z</time>
      </trkpt>
      <trkpt lat="44.10555" lon="5.67563">
        <ele>1172.47</ele>
        <time>2020-03-12T08:57:55Z</time>
      </trkpt>
      <trkpt lat="44.10557" lon="5.67561">
        <ele>1172.95</ele>
        <time>2020-03-12T08:58:34Z</time>
      </trkpt>
      <trkpt lat="44.10555" lon="5.67565">
        <ele>1172.95</ele>
        <time>2020-03-12T08:59:07Z</time>
      </trkpt>
      <trkpt lat="44.10555" lon="5.67566">
        <ele>1173.43</ele>
        <time>2020-03-12T08:59:43Z</time>
      </trkpt>
      <trkpt lat="44.10555" lon="5.67564">
        <ele>1170.54</ele>
        <time>2020-03-12T09:17:07Z</time>
      </trkpt>
      <trkpt lat="44.10556" lon="5.67564">
        <ele>1170.54</ele>
        <time>2020-03-12T09:17:08Z</time>
      </trkpt>
      <trkpt lat="44.10554" lon="5.67563">
        <ele>1173.91</ele>
        <time>2020-03-12T09:17:28Z</time>
      </trkpt>
      <trkpt lat="44.10554" lon="5.67563">
        <ele>1175.83</ele>
        <time>2020-03-12T09:17:52Z</time>
      </trkpt>
      <trkpt lat="44.10553" lon="5.67564">
        <ele>1176.31</ele>
        <time>2020-03-12T09:18:07Z</time>
      </trkpt>
      <trkpt lat="44.1055" lon="5.67564">
        <ele>1176.31</ele>
        <time>2020-03-12T09:18:30Z</time>
      </trkpt>
      <trkpt lat="44.10551" lon="5.67564">
        <ele>1176.31</ele>
        <time>2020-03-12T09:18:41Z</time>
      </trkpt>
      <trkpt lat="44.10554" lon="5.67567">
        <ele>1176.31</ele>
        <time>2020-03-12T09:18:46Z</time>
      </trkpt>
      <trkpt lat="44.10558" lon="5.6757">
        <ele>1176.31</ele>
        <time>2020-03-12T09:18:51Z</time>
      </trkpt>
      <trkpt lat="44.10561" lon="5.67581">
        <ele>1174.87</ele>
        <time>2020-03-12T09:18:58Z</time>
      </trkpt>
      <trkpt lat="44.10561" lon="5.67584">
        <ele>1174.87</ele>
        <time>2020-03-12T09:19:00Z</time>
      </trkpt>
      <trkpt lat="44.10563" lon="5.67586">
        <ele>1174.39</ele>
        <time>2020-03-12T09:19:13Z</time>
      </trkpt>
      <trkpt lat="44.10562" lon="5.67587">
        <ele>1174.39</ele>
        <time>2020-03-12T09:19:39Z</time>
      </trkpt>
      <trkpt lat="44.1057" lon="5.67593">
        <ele>1173.91</ele>
        <time>2020-03-12T09:19:56Z</time>
      </trkpt>
      <trkpt lat="44.10576" lon="5.67595">
        <ele>1173.91</ele>
        <time>2020-03-12T09:20:02Z</time>
      </trkpt>
      <trkpt lat="44.10596" lon="5.67599">
        <ele>1173.91</ele>
        <time>2020-03-12T09:20:22Z</time>
      </trkpt>
      <trkpt lat="44.10607" lon="5.67601">
        <ele>1173.43</ele>
        <time>2020-03-12T09:20:41Z</time>
      </trkpt>
      <trkpt lat="44.10626" lon="5.67606">
        <ele>1173.43</ele>
        <time>2020-03-12T09:21:00Z</time>
      </trkpt>
      <trkpt lat="44.10648" lon="5.67609">
        <ele>1172.95</ele>
        <time>2020-03-12T09:21:22Z</time>
      </trkpt>
      <trkpt lat="44.10652" lon="5.67613">
        <ele>1172.95</ele>
        <time>2020-03-12T09:21:26Z</time>
      </trkpt>
      <trkpt lat="44.10654" lon="5.67615">
        <ele>1172.95</ele>
        <time>2020-03-12T09:21:28Z</time>
      </trkpt>
      <trkpt lat="44.10676" lon="5.67627">
        <ele>1171.5</ele>
        <time>2020-03-12T09:21:48Z</time>
      </trkpt>
      <trkpt lat="44.10699" lon="5.67631">
        <ele>1171.02</ele>
        <time>2020-03-12T09:22:09Z</time>
      </trkpt>
      <trkpt lat="44.10714" lon="5.67633">
        <ele>1170.54</ele>
        <time>2020-03-12T09:22:24Z</time>
      </trkpt>
      <trkpt lat="44.10735" lon="5.67635">
        <ele>1169.58</ele>
        <time>2020-03-12T09:22:44Z</time>
      </trkpt>
      <trkpt lat="44.10759" lon="5.67642">
        <ele>1169.1</ele>
        <time>2020-03-12T09:23:06Z</time>
      </trkpt>
      <trkpt lat="44.10784" lon="5.67644">
        <ele>1168.14</ele>
        <time>2020-03-12T09:23:27Z</time>
      </trkpt>
      <trkpt lat="44.10803" lon="5.67638">
        <ele>1165.26</ele>
        <time>2020-03-12T09:23:48Z</time>
      </trkpt>
      <trkpt lat="44.10819" lon="5.67629">
        <ele>1163.33</ele>
        <time>2020-03-12T09:24:06Z</time>
      </trkpt>
      <trkpt lat="44.10837" lon="5.67616">
        <ele>1161.89</ele>
        <time>2020-03-12T09:24:26Z</time>
      </trkpt>
      <trkpt lat="44.10847" lon="5.67606">
        <ele>1160.93</ele>
        <time>2020-03-12T09:24:37Z</time>
      </trkpt>
      <trkpt lat="44.10861" lon="5.6759">
        <ele>1159.49</ele>
        <time>2020-03-12T09:24:54Z</time>
      </trkpt>
      <trkpt lat="44.10877" lon="5.67573">
        <ele>1159.01</ele>
        <time>2020-03-12T09:25:12Z</time>
      </trkpt>
      <trkpt lat="44.10892" lon="5.67553">
        <ele>1158.53</ele>
        <time>2020-03-12T09:25:32Z</time>
      </trkpt>
      <trkpt lat="44.10908" lon="5.67542">
        <ele>1157.56</ele>
        <time>2020-03-12T09:25:48Z</time>
      </trkpt>
      <trkpt lat="44.10922" lon="5.67532">
        <ele>1155.64</ele>
        <time>2020-03-12T09:26:03Z</time>
      </trkpt>
      <trkpt lat="44.10935" lon="5.6752">
        <ele>1153.72</ele>
        <time>2020-03-12T09:26:20Z</time>
      </trkpt>
      <trkpt lat="44.10949" lon="5.67511">
        <ele>1151.32</ele>
        <time>2020-03-12T09:26:37Z</time>
      </trkpt>
      <trkpt lat="44.1096" lon="5.67509">
        <ele>1149.39</ele>
        <time>2020-03-12T09:26:50Z</time>
      </trkpt>
      <trkpt lat="44.10966" lon="5.67515">
        <ele>1149.39</ele>
        <time>2020-03-12T09:27:10Z</time>
      </trkpt>
      <trkpt lat="44.10977" lon="5.67518">
        <ele>1147.95</ele>
        <time>2020-03-12T09:27:25Z</time>
      </trkpt>
      <trkpt lat="44.10996" lon="5.67523">
        <ele>1145.55</ele>
        <time>2020-03-12T09:27:42Z</time>
      </trkpt>
      <trkpt lat="44.11016" lon="5.67533">
        <ele>1145.07</ele>
        <time>2020-03-12T09:28:02Z</time>
      </trkpt>
      <trkpt lat="44.11037" lon="5.67539">
        <ele>1144.11</ele>
        <time>2020-03-12T09:28:22Z</time>
      </trkpt>
      <trkpt lat="44.11054" lon="5.67547">
        <ele>1142.18</ele>
        <time>2020-03-12T09:28:39Z</time>
      </trkpt>
      <trkpt lat="44.11064" lon="5.67564">
        <ele>1140.74</ele>
        <time>2020-03-12T09:28:55Z</time>
      </trkpt>
      <trkpt lat="44.11069" lon="5.67566">
        <ele>1140.74</ele>
        <time>2020-03-12T09:29:08Z</time>
      </trkpt>
      <trkpt lat="44.1107" lon="5.67565">
        <ele>1140.74</ele>
        <time>2020-03-12T09:29:27Z</time>
      </trkpt>
      <trkpt lat="44.11069" lon="5.67563">
        <ele>1140.74</ele>
        <time>2020-03-12T09:29:47Z</time>
      </trkpt>
      <trkpt lat="44.11078" lon="5.67562">
        <ele>1139.78</ele>
        <time>2020-03-12T09:30:10Z</time>
      </trkpt>
      <trkpt lat="44.11094" lon="5.67563">
        <ele>1138.34</ele>
        <time>2020-03-12T09:30:26Z</time>
      </trkpt>
      <trkpt lat="44.11103" lon="5.67566">
        <ele>1137.86</ele>
        <time>2020-03-12T09:30:37Z</time>
      </trkpt>
      <trkpt lat="44.11117" lon="5.67564">
        <ele>1138.82</ele>
        <time>2020-03-12T09:30:51Z</time>
      </trkpt>
      <trkpt lat="44.11119" lon="5.67566">
        <ele>1138.82</ele>
        <time>2020-03-12T09:30:53Z</time>
      </trkpt>
      <trkpt lat="44.11123" lon="5.67569">
        <ele>1139.3</ele>
        <time>2020-03-12T09:30:57Z</time>
      </trkpt>
      <trkpt lat="44.11135" lon="5.67583">
        <ele>1140.74</ele>
        <time>2020-03-12T09:31:13Z</time>
      </trkpt>
      <trkpt lat="44.11146" lon="5.67598">
        <ele>1141.7</ele>
        <time>2020-03-12T09:31:29Z</time>
      </trkpt>
      <trkpt lat="44.11165" lon="5.67601">
        <ele>1144.11</ele>
        <time>2020-03-12T09:31:48Z</time>
      </trkpt>
      <trkpt lat="44.11176" lon="5.67615">
        <ele>1146.03</ele>
        <time>2020-03-12T09:32:03Z</time>
      </trkpt>
      <trkpt lat="44.11179" lon="5.67622">
        <ele>1146.03</ele>
        <time>2020-03-12T09:32:09Z</time>
      </trkpt>
      <trkpt lat="44.1119" lon="5.6764">
        <ele>1147.47</ele>
        <time>2020-03-12T09:32:28Z</time>
      </trkpt>
      <trkpt lat="44.11208" lon="5.67657">
        <ele>1148.91</ele>
        <time>2020-03-12T09:32:49Z</time>
      </trkpt>
      <trkpt lat="44.11222" lon="5.67668">
        <ele>1149.87</ele>
        <time>2020-03-12T09:33:07Z</time>
      </trkpt>
      <trkpt lat="44.11238" lon="5.67677">
        <ele>1150.35</ele>
        <time>2020-03-12T09:33:25Z</time>
      </trkpt>
      <trkpt lat="44.11241" lon="5.67678">
        <ele>1150.35</ele>
        <time>2020-03-12T09:33:28Z</time>
      </trkpt>
      <trkpt lat="44.11262" lon="5.6769">
        <ele>1150.35</ele>
        <time>2020-03-12T09:33:46Z</time>
      </trkpt>
      <trkpt lat="44.11283" lon="5.67702">
        <ele>1150.84</ele>
        <time>2020-03-12T09:34:05Z</time>
      </trkpt>
      <trkpt lat="44.11288" lon="5.67703">
        <ele>1150.84</ele>
        <time>2020-03-12T09:34:10Z</time>
      </trkpt>
      <trkpt lat="44.11292" lon="5.67706">
        <ele>1151.32</ele>
        <time>2020-03-12T09:34:14Z</time>
      </trkpt>
      <trkpt lat="44.11306" lon="5.67712">
        <ele>1151.8</ele>
        <time>2020-03-12T09:34:26Z</time>
      </trkpt>
      <trkpt lat="44.11324" lon="5.67723">
        <ele>1152.28</ele>
        <time>2020-03-12T09:34:44Z</time>
      </trkpt>
      <trkpt lat="44.11342" lon="5.67734">
        <ele>1153.24</ele>
        <time>2020-03-12T09:35:02Z</time>
      </trkpt>
      <trkpt lat="44.1136" lon="5.67743">
        <ele>1153.72</ele>
        <time>2020-03-12T09:35:21Z</time>
      </trkpt>
      <trkpt lat="44.11378" lon="5.67755">
        <ele>1154.68</ele>
        <time>2020-03-12T09:35:41Z</time>
      </trkpt>
      <trkpt lat="44.11396" lon="5.67767">
        <ele>1156.12</ele>
        <time>2020-03-12T09:36:00Z</time>
      </trkpt>
      <trkpt lat="44.11412" lon="5.67771">
        <ele>1157.56</ele>
        <time>2020-03-12T09:36:16Z</time>
      </trkpt>
      <trkpt lat="44.1143" lon="5.67772">
        <ele>1159.49</ele>
        <time>2020-03-12T09:36:35Z</time>
      </trkpt>
      <trkpt lat="44.11449" lon="5.67783">
        <ele>1160.93</ele>
        <time>2020-03-12T09:36:55Z</time>
      </trkpt>
      <trkpt lat="44.1145" lon="5.67784">
        <ele>1160.93</ele>
        <time>2020-03-12T09:36:57Z</time>
      </trkpt>
      <trkpt lat="44.11453" lon="5.67784">
        <ele>1162.85</ele>
        <time>2020-03-12T09:37:01Z</time>
      </trkpt>
      <trkpt lat="44.11471" lon="5.67786">
        <ele>1162.85</ele>
        <time>2020-03-12T09:37:21Z</time>
      </trkpt>
      <trkpt lat="44.11495" lon="5.67792">
        <ele>1164.77</ele>
        <time>2020-03-12T09:37:42Z</time>
      </trkpt>
      <trkpt lat="44.11508" lon="5.678">
        <ele>1166.22</ele>
        <time>2020-03-12T09:37:58Z</time>
      </trkpt>
      <trkpt lat="44.11524" lon="5.67813">
        <ele>1167.66</ele>
        <time>2020-03-12T09:38:18Z</time>
      </trkpt>
      <trkpt lat="44.11538" lon="5.67824">
        <ele>1169.58</ele>
        <time>2020-03-12T09:38:36Z</time>
      </trkpt>
      <trkpt lat="44.11557" lon="5.67835">
        <ele>1171.5</ele>
        <time>2020-03-12T09:38:57Z</time>
      </trkpt>
      <trkpt lat="44.11571" lon="5.67845">
        <ele>1173.43</ele>
        <time>2020-03-12T09:39:14Z</time>
      </trkpt>
      <trkpt lat="44.11587" lon="5.67857">
        <ele>1174.87</ele>
        <time>2020-03-12T09:39:31Z</time>
      </trkpt>
      <trkpt lat="44.11607" lon="5.67867">
        <ele>1176.79</ele>
        <time>2020-03-12T09:39:51Z</time>
      </trkpt>
      <trkpt lat="44.11618" lon="5.67872">
        <ele>1177.75</ele>
        <time>2020-03-12T09:40:04Z</time>
      </trkpt>
      <trkpt lat="44.11635" lon="5.67875">
        <ele>1178.23</ele>
        <time>2020-03-12T09:40:22Z</time>
      </trkpt>
      <trkpt lat="44.11659" lon="5.67877">
        <ele>1179.67</ele>
        <time>2020-03-12T09:40:42Z</time>
      </trkpt>
      <trkpt lat="44.11674" lon="5.67891">
        <ele>1181.12</ele>
        <time>2020-03-12T09:40:58Z</time>
      </trkpt>
      <trkpt lat="44.11685" lon="5.67902">
        <ele>1182.56</ele>
        <time>2020-03-12T09:41:12Z</time>
      </trkpt>
      <trkpt lat="44.11692" lon="5.67903">
        <ele>1183.52</ele>
        <time>2020-03-12T09:41:20Z</time>
      </trkpt>
      <trkpt lat="44.11695" lon="5.67902">
        <ele>1184</ele>
        <time>2020-03-12T09:41:23Z</time>
      </trkpt>
      <trkpt lat="44.117" lon="5.67903">
        <ele>1184.48</ele>
        <time>2020-03-12T09:41:27Z</time>
      </trkpt>
      <trkpt lat="44.11716" lon="5.67905">
        <ele>1186.4</ele>
        <time>2020-03-12T09:41:45Z</time>
      </trkpt>
      <trkpt lat="44.11731" lon="5.67907">
        <ele>1187.37</ele>
        <time>2020-03-12T09:42:00Z</time>
      </trkpt>
      <trkpt lat="44.11741" lon="5.67903">
        <ele>1188.81</ele>
        <time>2020-03-12T09:42:11Z</time>
      </trkpt>
      <trkpt lat="44.11749" lon="5.67899">
        <ele>1188.81</ele>
        <time>2020-03-12T09:42:28Z</time>
      </trkpt>
      <trkpt lat="44.11748" lon="5.67898">
        <ele>1188.81</ele>
        <time>2020-03-12T09:42:51Z</time>
      </trkpt>
      <trkpt lat="44.11749" lon="5.67898">
        <ele>1189.29</ele>
        <time>2020-03-12T09:43:21Z</time>
      </trkpt>
      <trkpt lat="44.11746" lon="5.67899">
        <ele>1189.29</ele>
        <time>2020-03-12T09:43:44Z</time>
      </trkpt>
      <trkpt lat="44.11746" lon="5.67901">
        <ele>1189.77</ele>
        <time>2020-03-12T09:44:10Z</time>
      </trkpt>
      <trkpt lat="44.11756" lon="5.67908">
        <ele>1189.77</ele>
        <time>2020-03-12T09:44:33Z</time>
      </trkpt>
      <trkpt lat="44.11762" lon="5.67911">
        <ele>1190.25</ele>
        <time>2020-03-12T09:44:47Z</time>
      </trkpt>
      <trkpt lat="44.11769" lon="5.6792">
        <ele>1191.69</ele>
        <time>2020-03-12T09:45:03Z</time>
      </trkpt>
      <trkpt lat="44.11783" lon="5.6793">
        <ele>1192.65</ele>
        <time>2020-03-12T09:45:20Z</time>
      </trkpt>
      <trkpt lat="44.11799" lon="5.67937">
        <ele>1193.61</ele>
        <time>2020-03-12T09:45:36Z</time>
      </trkpt>
      <trkpt lat="44.11821" lon="5.67944">
        <ele>1194.09</ele>
        <time>2020-03-12T09:45:55Z</time>
      </trkpt>
      <trkpt lat="44.11842" lon="5.67946">
        <ele>1194.09</ele>
        <time>2020-03-12T09:46:16Z</time>
      </trkpt>
      <trkpt lat="44.11862" lon="5.67954">
        <ele>1192.65</ele>
        <time>2020-03-12T09:46:36Z</time>
      </trkpt>
      <trkpt lat="44.11883" lon="5.67966">
        <ele>1190.25</ele>
        <time>2020-03-12T09:46:59Z</time>
      </trkpt>
      <trkpt lat="44.11902" lon="5.67977">
        <ele>1188.33</ele>
        <time>2020-03-12T09:47:18Z</time>
      </trkpt>
      <trkpt lat="44.11927" lon="5.67989">
        <ele>1185.92</ele>
        <time>2020-03-12T09:47:40Z</time>
      </trkpt>
      <trkpt lat="44.11945" lon="5.68004">
        <ele>1185.44</ele>
        <time>2020-03-12T09:47:57Z</time>
      </trkpt>
      <trkpt lat="44.11955" lon="5.68022">
        <ele>1184.96</ele>
        <time>2020-03-12T09:48:12Z</time>
      </trkpt>
      <trkpt lat="44.11952" lon="5.68034">
        <ele>1184.48</ele>
        <time>2020-03-12T09:48:29Z</time>
      </trkpt>
      <trkpt lat="44.11935" lon="5.68039">
        <ele>1181.12</ele>
        <time>2020-03-12T09:48:49Z</time>
      </trkpt>
      <trkpt lat="44.11915" lon="5.68048">
        <ele>1179.19</ele>
        <time>2020-03-12T09:49:08Z</time>
      </trkpt>
      <trkpt lat="44.11894" lon="5.68059">
        <ele>1176.79</ele>
        <time>2020-03-12T09:49:28Z</time>
      </trkpt>
      <trkpt lat="44.11882" lon="5.68069">
        <ele>1174.87</ele>
        <time>2020-03-12T09:49:43Z</time>
      </trkpt>
      <trkpt lat="44.11864" lon="5.6808">
        <ele>1172.47</ele>
        <time>2020-03-12T09:50:01Z</time>
      </trkpt>
      <trkpt lat="44.11851" lon="5.68097">
        <ele>1170.06</ele>
        <time>2020-03-12T09:50:20Z</time>
      </trkpt>
      <trkpt lat="44.11856" lon="5.68096">
        <ele>1170.06</ele>
        <time>2020-03-12T09:50:33Z</time>
      </trkpt>
      <trkpt lat="44.11854" lon="5.68094">
        <ele>1171.02</ele>
        <time>2020-03-12T09:50:58Z</time>
      </trkpt>
      <trkpt lat="44.1186" lon="5.68101">
        <ele>1171.02</ele>
        <time>2020-03-12T09:51:12Z</time>
      </trkpt>
      <trkpt lat="44.11862" lon="5.68102">
        <ele>1171.02</ele>
        <time>2020-03-12T09:51:14Z</time>
      </trkpt>
      <trkpt lat="44.11874" lon="5.68117">
        <ele>1169.58</ele>
        <time>2020-03-12T09:51:29Z</time>
      </trkpt>
      <trkpt lat="44.11878" lon="5.68122">
        <ele>1169.58</ele>
        <time>2020-03-12T09:51:35Z</time>
      </trkpt>
      <trkpt lat="44.11888" lon="5.68122">
        <ele>1170.54</ele>
        <time>2020-03-12T09:51:49Z</time>
      </trkpt>
      <trkpt lat="44.11888" lon="5.68124">
        <ele>1170.54</ele>
        <time>2020-03-12T09:51:51Z</time>
      </trkpt>
      <trkpt lat="44.11887" lon="5.68128">
        <ele>1170.54</ele>
        <time>2020-03-12T09:51:55Z</time>
      </trkpt>
      <trkpt lat="44.11883" lon="5.68143">
        <ele>1170.54</ele>
        <time>2020-03-12T09:52:11Z</time>
      </trkpt>
      <trkpt lat="44.11888" lon="5.68155">
        <ele>1171.5</ele>
        <time>2020-03-12T09:52:27Z</time>
      </trkpt>
      <trkpt lat="44.11888" lon="5.68156">
        <ele>1171.5</ele>
        <time>2020-03-12T09:52:45Z</time>
      </trkpt>
      <trkpt lat="44.11888" lon="5.6817">
        <ele>1171.5</ele>
        <time>2020-03-12T09:53:01Z</time>
      </trkpt>
      <trkpt lat="44.11889" lon="5.68162">
        <ele>1171.5</ele>
        <time>2020-03-12T09:53:13Z</time>
      </trkpt>
      <trkpt lat="44.11889" lon="5.68153">
        <ele>1171.5</ele>
        <time>2020-03-12T09:53:29Z</time>
      </trkpt>
      <trkpt lat="44.11887" lon="5.68138">
        <ele>1170.06</ele>
        <time>2020-03-12T09:53:44Z</time>
      </trkpt>
      <trkpt lat="44.11893" lon="5.68133">
        <ele>1171.02</ele>
        <time>2020-03-12T09:53:58Z</time>
      </trkpt>
      <trkpt lat="44.119" lon="5.68123">
        <ele>1171.98</ele>
        <time>2020-03-12T09:54:12Z</time>
      </trkpt>
      <trkpt lat="44.1191" lon="5.68118">
        <ele>1172.95</ele>
        <time>2020-03-12T09:54:26Z</time>
      </trkpt>
      <trkpt lat="44.11915" lon="5.68116">
        <ele>1173.91</ele>
        <time>2020-03-12T09:54:41Z</time>
      </trkpt>
      <trkpt lat="44.11919" lon="5.68115">
        <ele>1174.39</ele>
        <time>2020-03-12T09:54:56Z</time>
      </trkpt>
      <trkpt lat="44.11935" lon="5.68126">
        <ele>1176.79</ele>
        <time>2020-03-12T09:55:14Z</time>
      </trkpt>
      <trkpt lat="44.11942" lon="5.68137">
        <ele>1179.19</ele>
        <time>2020-03-12T09:55:30Z</time>
      </trkpt>
      <trkpt lat="44.11951" lon="5.68152">
        <ele>1181.12</ele>
        <time>2020-03-12T09:55:46Z</time>
      </trkpt>
      <trkpt lat="44.11958" lon="5.68168">
        <ele>1183.52</ele>
        <time>2020-03-12T09:56:04Z</time>
      </trkpt>
      <trkpt lat="44.11966" lon="5.68187">
        <ele>1186.4</ele>
        <time>2020-03-12T09:56:22Z</time>
      </trkpt>
      <trkpt lat="44.1197" lon="5.6819">
        <ele>1187.37</ele>
        <time>2020-03-12T09:56:37Z</time>
      </trkpt>
      <trkpt lat="44.11984" lon="5.682">
        <ele>1189.29</ele>
        <time>2020-03-12T09:56:54Z</time>
      </trkpt>
      <trkpt lat="44.11998" lon="5.68214">
        <ele>1191.21</ele>
        <time>2020-03-12T09:57:11Z</time>
      </trkpt>
      <trkpt lat="44.12004" lon="5.68215">
        <ele>1191.21</ele>
        <time>2020-03-12T09:57:30Z</time>
      </trkpt>
      <trkpt lat="44.12011" lon="5.68222">
        <ele>1192.65</ele>
        <time>2020-03-12T09:57:47Z</time>
      </trkpt>
      <trkpt lat="44.12018" lon="5.68231">
        <ele>1194.09</ele>
        <time>2020-03-12T09:58:02Z</time>
      </trkpt>
      <trkpt lat="44.12027" lon="5.68238">
        <ele>1195.06</ele>
        <time>2020-03-12T09:58:17Z</time>
      </trkpt>
      <trkpt lat="44.12039" lon="5.68244">
        <ele>1196.98</ele>
        <time>2020-03-12T09:58:33Z</time>
      </trkpt>
      <trkpt lat="44.12055" lon="5.68255">
        <ele>1198.9</ele>
        <time>2020-03-12T09:58:51Z</time>
      </trkpt>
      <trkpt lat="44.12066" lon="5.68269">
        <ele>1200.82</ele>
        <time>2020-03-12T09:59:07Z</time>
      </trkpt>
      <trkpt lat="44.12078" lon="5.68286">
        <ele>1203.71</ele>
        <time>2020-03-12T09:59:25Z</time>
      </trkpt>
      <trkpt lat="44.12091" lon="5.68304">
        <ele>1206.11</ele>
        <time>2020-03-12T09:59:44Z</time>
      </trkpt>
      <trkpt lat="44.12098" lon="5.68304">
        <ele>1207.55</ele>
        <time>2020-03-12T10:00:06Z</time>
      </trkpt>
      <trkpt lat="44.12111" lon="5.68301">
        <ele>1210.44</ele>
        <time>2020-03-12T10:00:26Z</time>
      </trkpt>
      <trkpt lat="44.12128" lon="5.68297">
        <ele>1213.32</ele>
        <time>2020-03-12T10:00:42Z</time>
      </trkpt>
      <trkpt lat="44.12142" lon="5.68291">
        <ele>1215.24</ele>
        <time>2020-03-12T10:00:59Z</time>
      </trkpt>
      <trkpt lat="44.12154" lon="5.68289">
        <ele>1218.13</ele>
        <time>2020-03-12T10:01:18Z</time>
      </trkpt>
      <trkpt lat="44.12172" lon="5.6829">
        <ele>1221.01</ele>
        <time>2020-03-12T10:01:39Z</time>
      </trkpt>
      <trkpt lat="44.12189" lon="5.68289">
        <ele>1223.9</ele>
        <time>2020-03-12T10:02:00Z</time>
      </trkpt>
      <trkpt lat="44.12206" lon="5.68279">
        <ele>1226.3</ele>
        <time>2020-03-12T10:02:19Z</time>
      </trkpt>
      <trkpt lat="44.1222" lon="5.68261">
        <ele>1228.22</ele>
        <time>2020-03-12T10:02:38Z</time>
      </trkpt>
      <trkpt lat="44.12222" lon="5.68257">
        <ele>1228.22</ele>
        <time>2020-03-12T10:02:42Z</time>
      </trkpt>
      <trkpt lat="44.12231" lon="5.68246">
        <ele>1228.22</ele>
        <time>2020-03-12T10:02:54Z</time>
      </trkpt>
      <trkpt lat="44.12253" lon="5.6824">
        <ele>1228.22</ele>
        <time>2020-03-12T10:03:14Z</time>
      </trkpt>
      <trkpt lat="44.12276" lon="5.68244">
        <ele>1228.7</ele>
        <time>2020-03-12T10:03:36Z</time>
      </trkpt>
      <trkpt lat="44.12278" lon="5.68244">
        <ele>1228.7</ele>
        <time>2020-03-12T10:03:38Z</time>
      </trkpt>
      <trkpt lat="44.12284" lon="5.68244">
        <ele>1226.78</ele>
        <time>2020-03-12T10:03:43Z</time>
      </trkpt>
      <trkpt lat="44.123" lon="5.68252">
        <ele>1228.22</ele>
        <time>2020-03-12T10:04:00Z</time>
      </trkpt>
      <trkpt lat="44.12321" lon="5.68262">
        <ele>1228.22</ele>
        <time>2020-03-12T10:04:21Z</time>
      </trkpt>
      <trkpt lat="44.12344" lon="5.68274">
        <ele>1229.18</ele>
        <time>2020-03-12T10:04:44Z</time>
      </trkpt>
      <trkpt lat="44.12362" lon="5.68284">
        <ele>1229.18</ele>
        <time>2020-03-12T10:05:03Z</time>
      </trkpt>
      <trkpt lat="44.12378" lon="5.68293">
        <ele>1229.18</ele>
        <time>2020-03-12T10:05:21Z</time>
      </trkpt>
      <trkpt lat="44.12398" lon="5.68303">
        <ele>1229.18</ele>
        <time>2020-03-12T10:05:41Z</time>
      </trkpt>
      <trkpt lat="44.12424" lon="5.68321">
        <ele>1229.18</ele>
        <time>2020-03-12T10:06:05Z</time>
      </trkpt>
      <trkpt lat="44.12442" lon="5.68328">
        <ele>1229.18</ele>
        <time>2020-03-12T10:06:23Z</time>
      </trkpt>
      <trkpt lat="44.12449" lon="5.68329">
        <ele>1228.7</ele>
        <time>2020-03-12T10:06:28Z</time>
      </trkpt>
      <trkpt lat="44.12456" lon="5.68329">
        <ele>1227.74</ele>
        <time>2020-03-12T10:06:33Z</time>
      </trkpt>
      <trkpt lat="44.12473" lon="5.68323">
        <ele>1229.18</ele>
        <time>2020-03-12T10:06:49Z</time>
      </trkpt>
      <trkpt lat="44.1249" lon="5.68316">
        <ele>1229.66</ele>
        <time>2020-03-12T10:07:08Z</time>
      </trkpt>
      <trkpt lat="44.1251" lon="5.683">
        <ele>1232.07</ele>
        <time>2020-03-12T10:07:28Z</time>
      </trkpt>
      <trkpt lat="44.12525" lon="5.68286">
        <ele>1233.51</ele>
        <time>2020-03-12T10:07:45Z</time>
      </trkpt>
      <trkpt lat="44.12539" lon="5.68274">
        <ele>1235.43</ele>
        <time>2020-03-12T10:08:05Z</time>
      </trkpt>
      <trkpt lat="44.12545" lon="5.6827">
        <ele>1235.43</ele>
        <time>2020-03-12T10:08:26Z</time>
      </trkpt>
      <trkpt lat="44.12549" lon="5.68266">
        <ele>1235.43</ele>
        <time>2020-03-12T10:09:05Z</time>
      </trkpt>
      <trkpt lat="44.12563" lon="5.68262">
        <ele>1236.39</ele>
        <time>2020-03-12T10:09:22Z</time>
      </trkpt>
      <trkpt lat="44.12579" lon="5.68248">
        <ele>1237.35</ele>
        <time>2020-03-12T10:09:41Z</time>
      </trkpt>
      <trkpt lat="44.12594" lon="5.68239">
        <ele>1237.35</ele>
        <time>2020-03-12T10:10:00Z</time>
      </trkpt>
      <trkpt lat="44.12617" lon="5.68231">
        <ele>1236.87</ele>
        <time>2020-03-12T10:10:21Z</time>
      </trkpt>
      <trkpt lat="44.12633" lon="5.68224">
        <ele>1236.87</ele>
        <time>2020-03-12T10:10:38Z</time>
      </trkpt>
      <trkpt lat="44.12647" lon="5.68218">
        <ele>1236.87</ele>
        <time>2020-03-12T10:10:54Z</time>
      </trkpt>
      <trkpt lat="44.12669" lon="5.68214">
        <ele>1237.83</ele>
        <time>2020-03-12T10:11:07Z</time>
      </trkpt>
      <trkpt lat="44.12682" lon="5.68206">
        <ele>1237.83</ele>
        <time>2020-03-12T10:11:26Z</time>
      </trkpt>
      <trkpt lat="44.12697" lon="5.68197">
        <ele>1237.35</ele>
        <time>2020-03-12T10:11:45Z</time>
      </trkpt>
      <trkpt lat="44.12718" lon="5.68189">
        <ele>1238.32</ele>
        <time>2020-03-12T10:12:03Z</time>
      </trkpt>
      <trkpt lat="44.12738" lon="5.68176">
        <ele>1239.76</ele>
        <time>2020-03-12T10:12:21Z</time>
      </trkpt>
      <trkpt lat="44.12764" lon="5.68164">
        <ele>1240.24</ele>
        <time>2020-03-12T10:12:34Z</time>
      </trkpt>
      <trkpt lat="44.12792" lon="5.68151">
        <ele>1241.68</ele>
        <time>2020-03-12T10:12:56Z</time>
      </trkpt>
      <trkpt lat="44.1281" lon="5.68144">
        <ele>1239.76</ele>
        <time>2020-03-12T10:13:14Z</time>
      </trkpt>
      <trkpt lat="44.12832" lon="5.68142">
        <ele>1237.35</ele>
        <time>2020-03-12T10:13:34Z</time>
      </trkpt>
      <trkpt lat="44.12839" lon="5.68142">
        <ele>1235.91</ele>
        <time>2020-03-12T10:13:41Z</time>
      </trkpt>
      <trkpt lat="44.12852" lon="5.68143">
        <ele>1234.95</ele>
        <time>2020-03-12T10:13:54Z</time>
      </trkpt>
      <trkpt lat="44.12867" lon="5.68143">
        <ele>1233.99</ele>
        <time>2020-03-12T10:14:08Z</time>
      </trkpt>
      <trkpt lat="44.12883" lon="5.68137">
        <ele>1232.07</ele>
        <time>2020-03-12T10:14:22Z</time>
      </trkpt>
      <trkpt lat="44.12896" lon="5.68136">
        <ele>1231.11</ele>
        <time>2020-03-12T10:14:35Z</time>
      </trkpt>
      <trkpt lat="44.12913" lon="5.68139">
        <ele>1230.62</ele>
        <time>2020-03-12T10:14:48Z</time>
      </trkpt>
      <trkpt lat="44.12931" lon="5.68133">
        <ele>1229.66</ele>
        <time>2020-03-12T10:15:04Z</time>
      </trkpt>
      <trkpt lat="44.12952" lon="5.68132">
        <ele>1228.22</ele>
        <time>2020-03-12T10:15:21Z</time>
      </trkpt>
      <trkpt lat="44.12956" lon="5.68134">
        <ele>1228.22</ele>
        <time>2020-03-12T10:15:24Z</time>
      </trkpt>
      <trkpt lat="44.12975" lon="5.68125">
        <ele>1227.26</ele>
        <time>2020-03-12T10:15:40Z</time>
      </trkpt>
      <trkpt lat="44.12995" lon="5.68118">
        <ele>1226.3</ele>
        <time>2020-03-12T10:15:58Z</time>
      </trkpt>
      <trkpt lat="44.13012" lon="5.68102">
        <ele>1225.82</ele>
        <time>2020-03-12T10:16:12Z</time>
      </trkpt>
      <trkpt lat="44.13026" lon="5.68087">
        <ele>1225.34</ele>
        <time>2020-03-12T10:16:29Z</time>
      </trkpt>
      <trkpt lat="44.13035" lon="5.68095">
        <ele>1224.38</ele>
        <time>2020-03-12T10:16:44Z</time>
      </trkpt>
      <trkpt lat="44.13039" lon="5.68102">
        <ele>1224.38</ele>
        <time>2020-03-12T10:16:58Z</time>
      </trkpt>
      <trkpt lat="44.13038" lon="5.68101">
        <ele>1224.38</ele>
        <time>2020-03-12T10:17:02Z</time>
      </trkpt>
      <trkpt lat="44.13039" lon="5.68092">
        <ele>1224.38</ele>
        <time>2020-03-12T10:17:16Z</time>
      </trkpt>
      <trkpt lat="44.13042" lon="5.68092">
        <ele>1224.38</ele>
        <time>2020-03-12T10:17:33Z</time>
      </trkpt>
      <trkpt lat="44.13038" lon="5.68099">
        <ele>1225.34</ele>
        <time>2020-03-12T10:17:50Z</time>
      </trkpt>
      <trkpt lat="44.13036" lon="5.68105">
        <ele>1225.34</ele>
        <time>2020-03-12T10:18:06Z</time>
      </trkpt>
      <trkpt lat="44.13032" lon="5.68113">
        <ele>1225.34</ele>
        <time>2020-03-12T10:18:14Z</time>
      </trkpt>
      <trkpt lat="44.13036" lon="5.68112">
        <ele>1225.34</ele>
        <time>2020-03-12T10:18:30Z</time>
      </trkpt>
      <trkpt lat="44.13043" lon="5.68112">
        <ele>1225.34</ele>
        <time>2020-03-12T10:18:44Z</time>
      </trkpt>
      <trkpt lat="44.13042" lon="5.68105">
        <ele>1225.34</ele>
        <time>2020-03-12T10:18:59Z</time>
      </trkpt>
      <trkpt lat="44.13044" lon="5.68101">
        <ele>1225.82</ele>
        <time>2020-03-12T10:19:16Z</time>
      </trkpt>
      <trkpt lat="44.13035" lon="5.68101">
        <ele>1225.82</ele>
        <time>2020-03-12T10:19:31Z</time>
      </trkpt>
      <trkpt lat="44.13035" lon="5.68102">
        <ele>1224.38</ele>
        <time>2020-03-12T10:19:36Z</time>
      </trkpt>
      <trkpt lat="44.13037" lon="5.68099">
        <ele>1224.38</ele>
        <time>2020-03-12T10:19:58Z</time>
      </trkpt>
      <trkpt lat="44.13038" lon="5.68095">
        <ele>1224.38</ele>
        <time>2020-03-12T10:20:15Z</time>
      </trkpt>
      <trkpt lat="44.13037" lon="5.68097">
        <ele>1224.38</ele>
        <time>2020-03-12T10:20:39Z</time>
      </trkpt>
      <trkpt lat="44.13037" lon="5.68099">
        <ele>1224.38</ele>
        <time>2020-03-12T10:20:50Z</time>
      </trkpt>
      <trkpt lat="44.13035" lon="5.68087">
        <ele>1224.38</ele>
        <time>2020-03-12T10:21:07Z</time>
      </trkpt>
      <trkpt lat="44.13036" lon="5.68075">
        <ele>1225.82</ele>
        <time>2020-03-12T10:21:23Z</time>
      </trkpt>
      <trkpt lat="44.13044" lon="5.68076">
        <ele>1226.3</ele>
        <time>2020-03-12T10:21:37Z</time>
      </trkpt>
      <trkpt lat="44.13053" lon="5.68083">
        <ele>1226.78</ele>
        <time>2020-03-12T10:21:53Z</time>
      </trkpt>
      <trkpt lat="44.13063" lon="5.68093">
        <ele>1228.22</ele>
        <time>2020-03-12T10:22:12Z</time>
      </trkpt>
      <trkpt lat="44.13074" lon="5.6809">
        <ele>1230.62</ele>
        <time>2020-03-12T10:22:25Z</time>
      </trkpt>
      <trkpt lat="44.1308" lon="5.68086">
        <ele>1231.11</ele>
        <time>2020-03-12T10:22:31Z</time>
      </trkpt>
      <trkpt lat="44.13082" lon="5.68084">
        <ele>1231.11</ele>
        <time>2020-03-12T10:22:34Z</time>
      </trkpt>
      <trkpt lat="44.131" lon="5.68071">
        <ele>1231.59</ele>
        <time>2020-03-12T10:22:54Z</time>
      </trkpt>
      <trkpt lat="44.13111" lon="5.68065">
        <ele>1231.59</ele>
        <time>2020-03-12T10:23:06Z</time>
      </trkpt>
      <trkpt lat="44.13118" lon="5.68054">
        <ele>1231.59</ele>
        <time>2020-03-12T10:23:15Z</time>
      </trkpt>
      <trkpt lat="44.13118" lon="5.68051">
        <ele>1231.59</ele>
        <time>2020-03-12T10:23:17Z</time>
      </trkpt>
      <trkpt lat="44.13117" lon="5.68047">
        <ele>1231.59</ele>
        <time>2020-03-12T10:23:20Z</time>
      </trkpt>
      <trkpt lat="44.13121" lon="5.68024">
        <ele>1231.59</ele>
        <time>2020-03-12T10:23:37Z</time>
      </trkpt>
      <trkpt lat="44.13122" lon="5.68006">
        <ele>1233.03</ele>
        <time>2020-03-12T10:23:51Z</time>
      </trkpt>
      <trkpt lat="44.13118" lon="5.67992">
        <ele>1235.43</ele>
        <time>2020-03-12T10:24:04Z</time>
      </trkpt>
      <trkpt lat="44.13111" lon="5.6797">
        <ele>1237.83</ele>
        <time>2020-03-12T10:24:22Z</time>
      </trkpt>
      <trkpt lat="44.1311" lon="5.6795">
        <ele>1240.24</ele>
        <time>2020-03-12T10:24:38Z</time>
      </trkpt>
      <trkpt lat="44.13112" lon="5.67936">
        <ele>1243.6</ele>
        <time>2020-03-12T10:24:53Z</time>
      </trkpt>
      <trkpt lat="44.13113" lon="5.6792">
        <ele>1246.49</ele>
        <time>2020-03-12T10:25:09Z</time>
      </trkpt>
      <trkpt lat="44.13115" lon="5.67904">
        <ele>1249.37</ele>
        <time>2020-03-12T10:25:24Z</time>
      </trkpt>
      <trkpt lat="44.13122" lon="5.67892">
        <ele>1252.74</ele>
        <time>2020-03-12T10:25:39Z</time>
      </trkpt>
      <trkpt lat="44.13129" lon="5.67879">
        <ele>1256.1</ele>
        <time>2020-03-12T10:25:54Z</time>
      </trkpt>
      <trkpt lat="44.1313" lon="5.67871">
        <ele>1258.02</ele>
        <time>2020-03-12T10:26:12Z</time>
      </trkpt>
      <trkpt lat="44.13134" lon="5.67856">
        <ele>1260.43</ele>
        <time>2020-03-12T10:26:28Z</time>
      </trkpt>
      <trkpt lat="44.13142" lon="5.6784">
        <ele>1262.83</ele>
        <time>2020-03-12T10:26:45Z</time>
      </trkpt>
      <trkpt lat="44.13139" lon="5.67827">
        <ele>1263.79</ele>
        <time>2020-03-12T10:27:00Z</time>
      </trkpt>
      <trkpt lat="44.13137" lon="5.67821">
        <ele>1263.79</ele>
        <time>2020-03-12T10:27:04Z</time>
      </trkpt>
      <trkpt lat="44.13136" lon="5.67805">
        <ele>1264.27</ele>
        <time>2020-03-12T10:27:20Z</time>
      </trkpt>
      <trkpt lat="44.13136" lon="5.67806">
        <ele>1263.79</ele>
        <time>2020-03-12T10:27:28Z</time>
      </trkpt>
      <trkpt lat="44.13137" lon="5.67806">
        <ele>1263.79</ele>
        <time>2020-03-12T10:27:46Z</time>
      </trkpt>
      <trkpt lat="44.13139" lon="5.67803">
        <ele>1263.79</ele>
        <time>2020-03-12T10:28:11Z</time>
      </trkpt>
      <trkpt lat="44.13138" lon="5.67803">
        <ele>1263.79</ele>
        <time>2020-03-12T10:28:37Z</time>
      </trkpt>
      <trkpt lat="44.13136" lon="5.67804">
        <ele>1264.75</ele>
        <time>2020-03-12T10:28:46Z</time>
      </trkpt>
      <trkpt lat="44.13137" lon="5.67804">
        <ele>1264.75</ele>
        <time>2020-03-12T10:29:09Z</time>
      </trkpt>
      <trkpt lat="44.13136" lon="5.67804">
        <ele>1265.23</ele>
        <time>2020-03-12T10:29:32Z</time>
      </trkpt>
      <trkpt lat="44.13135" lon="5.67793">
        <ele>1265.23</ele>
        <time>2020-03-12T10:29:54Z</time>
      </trkpt>
      <trkpt lat="44.13135" lon="5.67771">
        <ele>1263.79</ele>
        <time>2020-03-12T10:30:08Z</time>
      </trkpt>
      <trkpt lat="44.13143" lon="5.67747">
        <ele>1263.31</ele>
        <time>2020-03-12T10:30:24Z</time>
      </trkpt>
      <trkpt lat="44.13145" lon="5.67714">
        <ele>1260.91</ele>
        <time>2020-03-12T10:30:45Z</time>
      </trkpt>
      <trkpt lat="44.13142" lon="5.67698">
        <ele>1259.46</ele>
        <time>2020-03-12T10:30:59Z</time>
      </trkpt>
      <trkpt lat="44.13139" lon="5.67673">
        <ele>1257.06</ele>
        <time>2020-03-12T10:31:17Z</time>
      </trkpt>
      <trkpt lat="44.1314" lon="5.67665">
        <ele>1256.1</ele>
        <time>2020-03-12T10:31:22Z</time>
      </trkpt>
      <trkpt lat="44.13147" lon="5.67632">
        <ele>1253.22</ele>
        <time>2020-03-12T10:31:43Z</time>
      </trkpt>
      <trkpt lat="44.13157" lon="5.67603">
        <ele>1251.77</ele>
        <time>2020-03-12T10:32:04Z</time>
      </trkpt>
      <trkpt lat="44.13159" lon="5.67578">
        <ele>1249.85</ele>
        <time>2020-03-12T10:32:22Z</time>
      </trkpt>
      <trkpt lat="44.13164" lon="5.67556">
        <ele>1249.85</ele>
        <time>2020-03-12T10:32:38Z</time>
      </trkpt>
      <trkpt lat="44.13169" lon="5.67529">
        <ele>1248.41</ele>
        <time>2020-03-12T10:32:56Z</time>
      </trkpt>
      <trkpt lat="44.13176" lon="5.67503">
        <ele>1246.49</ele>
        <time>2020-03-12T10:33:15Z</time>
      </trkpt>
      <trkpt lat="44.13185" lon="5.67477">
        <ele>1246.49</ele>
        <time>2020-03-12T10:33:35Z</time>
      </trkpt>
      <trkpt lat="44.13193" lon="5.67446">
        <ele>1245.04</ele>
        <time>2020-03-12T10:33:56Z</time>
      </trkpt>
      <trkpt lat="44.13198" lon="5.67427">
        <ele>1243.6</ele>
        <time>2020-03-12T10:34:11Z</time>
      </trkpt>
      <trkpt lat="44.13208" lon="5.67404">
        <ele>1243.12</ele>
        <time>2020-03-12T10:34:29Z</time>
      </trkpt>
      <trkpt lat="44.13222" lon="5.67378">
        <ele>1242.64</ele>
        <time>2020-03-12T10:34:51Z</time>
      </trkpt>
      <trkpt lat="44.13236" lon="5.67358">
        <ele>1242.16</ele>
        <time>2020-03-12T10:35:09Z</time>
      </trkpt>
      <trkpt lat="44.13247" lon="5.67347">
        <ele>1241.2</ele>
        <time>2020-03-12T10:35:22Z</time>
      </trkpt>
      <trkpt lat="44.13262" lon="5.67335">
        <ele>1242.64</ele>
        <time>2020-03-12T10:35:39Z</time>
      </trkpt>
      <trkpt lat="44.13278" lon="5.67318">
        <ele>1242.64</ele>
        <time>2020-03-12T10:35:55Z</time>
      </trkpt>
      <trkpt lat="44.13282" lon="5.6731">
        <ele>1242.64</ele>
        <time>2020-03-12T10:36:07Z</time>
      </trkpt>
      <trkpt lat="44.13281" lon="5.6731">
        <ele>1241.2</ele>
        <time>2020-03-12T10:36:30Z</time>
      </trkpt>
      <trkpt lat="44.13288" lon="5.67309">
        <ele>1241.2</ele>
        <time>2020-03-12T10:36:50Z</time>
      </trkpt>
      <trkpt lat="44.13293" lon="5.67306">
        <ele>1241.68</ele>
        <time>2020-03-12T10:37:13Z</time>
      </trkpt>
      <trkpt lat="44.13295" lon="5.67307">
        <ele>1242.64</ele>
        <time>2020-03-12T10:37:23Z</time>
      </trkpt>
      <trkpt lat="44.13301" lon="5.67303">
        <ele>1243.12</ele>
        <time>2020-03-12T10:37:34Z</time>
      </trkpt>
      <trkpt lat="44.13311" lon="5.67282">
        <ele>1243.12</ele>
        <time>2020-03-12T10:37:52Z</time>
      </trkpt>
      <trkpt lat="44.13309" lon="5.67275">
        <ele>1243.12</ele>
        <time>2020-03-12T10:37:57Z</time>
      </trkpt>
      <trkpt lat="44.13304" lon="5.67267">
        <ele>1243.12</ele>
        <time>2020-03-12T10:38:03Z</time>
      </trkpt>
      <trkpt lat="44.13301" lon="5.67263">
        <ele>1242.16</ele>
        <time>2020-03-12T10:38:07Z</time>
      </trkpt>
      <trkpt lat="44.13291" lon="5.67232">
        <ele>1242.16</ele>
        <time>2020-03-12T10:38:29Z</time>
      </trkpt>
      <trkpt lat="44.13289" lon="5.67204">
        <ele>1244.56</ele>
        <time>2020-03-12T10:38:49Z</time>
      </trkpt>
      <trkpt lat="44.13287" lon="5.67177">
        <ele>1246.01</ele>
        <time>2020-03-12T10:39:08Z</time>
      </trkpt>
      <trkpt lat="44.13285" lon="5.67174">
        <ele>1246.01</ele>
        <time>2020-03-12T10:39:23Z</time>
      </trkpt>
      <trkpt lat="44.13285" lon="5.67176">
        <ele>1246.01</ele>
        <time>2020-03-12T10:39:25Z</time>
      </trkpt>
      <trkpt lat="44.13286" lon="5.67185">
        <ele>1246.01</ele>
        <time>2020-03-12T10:39:31Z</time>
      </trkpt>
      <trkpt lat="44.13287" lon="5.67199">
        <ele>1244.56</ele>
        <time>2020-03-12T10:39:40Z</time>
      </trkpt>
      <trkpt lat="44.13288" lon="5.67221">
        <ele>1243.6</ele>
        <time>2020-03-12T10:39:54Z</time>
      </trkpt>
      <trkpt lat="44.13288" lon="5.67223">
        <ele>1243.6</ele>
        <time>2020-03-12T10:39:55Z</time>
      </trkpt>
      <trkpt lat="44.13288" lon="5.67241">
        <ele>1241.68</ele>
        <time>2020-03-12T10:40:09Z</time>
      </trkpt>
      <trkpt lat="44.13282" lon="5.67248">
        <ele>1240.24</ele>
        <time>2020-03-12T10:40:22Z</time>
      </trkpt>
      <trkpt lat="44.13273" lon="5.67252">
        <ele>1239.28</ele>
        <time>2020-03-12T10:40:35Z</time>
      </trkpt>
      <trkpt lat="44.13269" lon="5.67252">
        <ele>1238.32</ele>
        <time>2020-03-12T10:40:40Z</time>
      </trkpt>
      <trkpt lat="44.13253" lon="5.67253">
        <ele>1234.95</ele>
        <time>2020-03-12T10:40:57Z</time>
      </trkpt>
      <trkpt lat="44.13238" lon="5.67256">
        <ele>1231.59</ele>
        <time>2020-03-12T10:41:10Z</time>
      </trkpt>
      <trkpt lat="44.13233" lon="5.67257">
        <ele>1231.11</ele>
        <time>2020-03-12T10:41:14Z</time>
      </trkpt>
      <trkpt lat="44.13219" lon="5.67261">
        <ele>1227.74</ele>
        <time>2020-03-12T10:41:29Z</time>
      </trkpt>
      <trkpt lat="44.13203" lon="5.67265">
        <ele>1224.38</ele>
        <time>2020-03-12T10:41:43Z</time>
      </trkpt>
      <trkpt lat="44.13191" lon="5.67263">
        <ele>1221.97</ele>
        <time>2020-03-12T10:41:55Z</time>
      </trkpt>
      <trkpt lat="44.13182" lon="5.67259">
        <ele>1220.05</ele>
        <time>2020-03-12T10:42:02Z</time>
      </trkpt>
      <trkpt lat="44.13169" lon="5.67258">
        <ele>1216.21</ele>
        <time>2020-03-12T10:42:15Z</time>
      </trkpt>
      <trkpt lat="44.13157" lon="5.67256">
        <ele>1213.32</ele>
        <time>2020-03-12T10:42:30Z</time>
      </trkpt>
      <trkpt lat="44.13143" lon="5.67249">
        <ele>1209.96</ele>
        <time>2020-03-12T10:42:44Z</time>
      </trkpt>
      <trkpt lat="44.13129" lon="5.67254">
        <ele>1208.51</ele>
        <time>2020-03-12T10:42:59Z</time>
      </trkpt>
      <trkpt lat="44.13127" lon="5.67261">
        <ele>1209</ele>
        <time>2020-03-12T10:43:15Z</time>
      </trkpt>
      <trkpt lat="44.13131" lon="5.67271">
        <ele>1209.48</ele>
        <time>2020-03-12T10:43:30Z</time>
      </trkpt>
      <trkpt lat="44.1313" lon="5.67277">
        <ele>1209.96</ele>
        <time>2020-03-12T10:43:46Z</time>
      </trkpt>
      <trkpt lat="44.13125" lon="5.67278">
        <ele>1209.96</ele>
        <time>2020-03-12T10:44:06Z</time>
      </trkpt>
      <trkpt lat="44.13133" lon="5.67293">
        <ele>1209.96</ele>
        <time>2020-03-12T10:44:48Z</time>
      </trkpt>
      <trkpt lat="44.1313" lon="5.67313">
        <ele>1210.92</ele>
        <time>2020-03-12T10:45:01Z</time>
      </trkpt>
      <trkpt lat="44.13128" lon="5.6731">
        <ele>1210.92</ele>
        <time>2020-03-12T10:45:20Z</time>
      </trkpt>
      <trkpt lat="44.13127" lon="5.67309">
        <ele>1210.92</ele>
        <time>2020-03-12T10:45:36Z</time>
      </trkpt>
      <trkpt lat="44.13126" lon="5.67308">
        <ele>1209.48</ele>
        <time>2020-03-12T10:45:38Z</time>
      </trkpt>
      <trkpt lat="44.13119" lon="5.67299">
        <ele>1207.07</ele>
        <time>2020-03-12T10:45:56Z</time>
      </trkpt>
      <trkpt lat="44.13121" lon="5.67315">
        <ele>1208.51</ele>
        <time>2020-03-12T10:46:08Z</time>
      </trkpt>
      <trkpt lat="44.13123" lon="5.67312">
        <ele>1209</ele>
        <time>2020-03-12T10:46:22Z</time>
      </trkpt>
      <trkpt lat="44.13119" lon="5.6731">
        <ele>1208.51</ele>
        <time>2020-03-12T10:46:42Z</time>
      </trkpt>
      <trkpt lat="44.1312" lon="5.67309">
        <ele>1208.03</ele>
        <time>2020-03-12T10:47:03Z</time>
      </trkpt>
      <trkpt lat="44.13121" lon="5.67292">
        <ele>1207.07</ele>
        <time>2020-03-12T10:47:18Z</time>
      </trkpt>
      <trkpt lat="44.13121" lon="5.67273">
        <ele>1206.11</ele>
        <time>2020-03-12T10:47:33Z</time>
      </trkpt>
      <trkpt lat="44.13121" lon="5.67264">
        <ele>1206.11</ele>
        <time>2020-03-12T10:47:43Z</time>
      </trkpt>
      <trkpt lat="44.13124" lon="5.67265">
        <ele>1207.55</ele>
        <time>2020-03-12T10:47:51Z</time>
      </trkpt>
      <trkpt lat="44.1313" lon="5.67266">
        <ele>1208.51</ele>
        <time>2020-03-12T10:48:05Z</time>
      </trkpt>
      <trkpt lat="44.13128" lon="5.67262">
        <ele>1208.51</ele>
        <time>2020-03-12T10:48:23Z</time>
      </trkpt>
      <trkpt lat="44.13123" lon="5.67264">
        <ele>1208.51</ele>
        <time>2020-03-12T10:48:37Z</time>
      </trkpt>
      <trkpt lat="44.13124" lon="5.67263">
        <ele>1209</ele>
        <time>2020-03-12T10:48:54Z</time>
      </trkpt>
      <trkpt lat="44.13124" lon="5.67263">
        <ele>1209</ele>
        <time>2020-03-12T10:48:55Z</time>
      </trkpt>
      <trkpt lat="44.13124" lon="5.67262">
        <ele>1207.07</ele>
        <time>2020-03-12T10:49:01Z</time>
      </trkpt>
      <trkpt lat="44.13122" lon="5.67264">
        <ele>1204.19</ele>
        <time>2020-03-12T11:46:07Z</time>
      </trkpt>
      <trkpt lat="44.13124" lon="5.67254">
        <ele>1204.19</ele>
        <time>2020-03-12T11:46:08Z</time>
      </trkpt>
      <trkpt lat="44.13119" lon="5.67258">
        <ele>1202.27</ele>
        <time>2020-03-12T11:46:44Z</time>
      </trkpt>
      <trkpt lat="44.13123" lon="5.6726">
        <ele>1198.42</ele>
        <time>2020-03-12T11:47:04Z</time>
      </trkpt>
      <trkpt lat="44.13123" lon="5.6726">
        <ele>1206.59</ele>
        <time>2020-03-12T11:47:05Z</time>
      </trkpt>
      <trkpt lat="44.13123" lon="5.6726">
        <ele>1201.79</ele>
        <time>2020-03-12T11:47:06Z</time>
      </trkpt>
      <trkpt lat="44.13124" lon="5.67264">
        <ele>1201.79</ele>
        <time>2020-03-12T11:47:26Z</time>
      </trkpt>
      <trkpt lat="44.13126" lon="5.67264">
        <ele>1202.75</ele>
        <time>2020-03-12T11:47:52Z</time>
      </trkpt>
      <trkpt lat="44.13125" lon="5.67262">
        <ele>1202.75</ele>
        <time>2020-03-12T11:48:21Z</time>
      </trkpt>
      <trkpt lat="44.13126" lon="5.67262">
        <ele>1202.27</ele>
        <time>2020-03-12T11:48:49Z</time>
      </trkpt>
      <trkpt lat="44.13118" lon="5.6726">
        <ele>1201.79</ele>
        <time>2020-03-12T11:49:05Z</time>
      </trkpt>
      <trkpt lat="44.13114" lon="5.67252">
        <ele>1200.34</ele>
        <time>2020-03-12T11:49:21Z</time>
      </trkpt>
      <trkpt lat="44.13113" lon="5.67251">
        <ele>1199.38</ele>
        <time>2020-03-12T11:49:38Z</time>
      </trkpt>
      <trkpt lat="44.13109" lon="5.67248">
        <ele>1199.38</ele>
        <time>2020-03-12T11:49:44Z</time>
      </trkpt>
      <trkpt lat="44.13101" lon="5.67232">
        <ele>1196.5</ele>
        <time>2020-03-12T11:50:03Z</time>
      </trkpt>
      <trkpt lat="44.13092" lon="5.67216">
        <ele>1193.13</ele>
        <time>2020-03-12T11:50:20Z</time>
      </trkpt>
      <trkpt lat="44.13086" lon="5.67199">
        <ele>1190.73</ele>
        <time>2020-03-12T11:50:37Z</time>
      </trkpt>
      <trkpt lat="44.13085" lon="5.6718">
        <ele>1190.25</ele>
        <time>2020-03-12T11:50:53Z</time>
      </trkpt>
      <trkpt lat="44.13082" lon="5.67164">
        <ele>1188.33</ele>
        <time>2020-03-12T11:51:08Z</time>
      </trkpt>
      <trkpt lat="44.13075" lon="5.67147">
        <ele>1186.4</ele>
        <time>2020-03-12T11:51:23Z</time>
      </trkpt>
      <trkpt lat="44.13069" lon="5.67125">
        <ele>1184.96</ele>
        <time>2020-03-12T11:51:39Z</time>
      </trkpt>
      <trkpt lat="44.13063" lon="5.67115">
        <ele>1183.04</ele>
        <time>2020-03-12T11:51:51Z</time>
      </trkpt>
      <trkpt lat="44.13054" lon="5.67097">
        <ele>1181.12</ele>
        <time>2020-03-12T11:52:08Z</time>
      </trkpt>
      <trkpt lat="44.13052" lon="5.67093">
        <ele>1181.12</ele>
        <time>2020-03-12T11:52:11Z</time>
      </trkpt>
      <trkpt lat="44.1305" lon="5.67083">
        <ele>1180.64</ele>
        <time>2020-03-12T11:52:18Z</time>
      </trkpt>
      <trkpt lat="44.13038" lon="5.67064">
        <ele>1179.19</ele>
        <time>2020-03-12T11:52:36Z</time>
      </trkpt>
      <trkpt lat="44.13028" lon="5.67049">
        <ele>1177.75</ele>
        <time>2020-03-12T11:52:51Z</time>
      </trkpt>
      <trkpt lat="44.13018" lon="5.67029">
        <ele>1175.83</ele>
        <time>2020-03-12T11:53:07Z</time>
      </trkpt>
      <trkpt lat="44.13008" lon="5.67011">
        <ele>1174.39</ele>
        <time>2020-03-12T11:53:23Z</time>
      </trkpt>
      <trkpt lat="44.12996" lon="5.66999">
        <ele>1171.5</ele>
        <time>2020-03-12T11:53:38Z</time>
      </trkpt>
      <trkpt lat="44.12982" lon="5.66985">
        <ele>1169.1</ele>
        <time>2020-03-12T11:53:55Z</time>
      </trkpt>
      <trkpt lat="44.1297" lon="5.66972">
        <ele>1166.22</ele>
        <time>2020-03-12T11:54:11Z</time>
      </trkpt>
      <trkpt lat="44.12961" lon="5.66952">
        <ele>1163.81</ele>
        <time>2020-03-12T11:54:29Z</time>
      </trkpt>
      <trkpt lat="44.12956" lon="5.66931">
        <ele>1161.41</ele>
        <time>2020-03-12T11:54:46Z</time>
      </trkpt>
      <trkpt lat="44.12948" lon="5.66914">
        <ele>1158.05</ele>
        <time>2020-03-12T11:55:03Z</time>
      </trkpt>
      <trkpt lat="44.12945" lon="5.66904">
        <ele>1156.12</ele>
        <time>2020-03-12T11:55:21Z</time>
      </trkpt>
      <trkpt lat="44.12943" lon="5.66905">
        <ele>1156.12</ele>
        <time>2020-03-12T11:55:40Z</time>
      </trkpt>
      <trkpt lat="44.12932" lon="5.66905">
        <ele>1155.16</ele>
        <time>2020-03-12T11:56:01Z</time>
      </trkpt>
      <trkpt lat="44.12915" lon="5.66904">
        <ele>1151.8</ele>
        <time>2020-03-12T11:56:19Z</time>
      </trkpt>
      <trkpt lat="44.12901" lon="5.66904">
        <ele>1149.39</ele>
        <time>2020-03-12T11:56:37Z</time>
      </trkpt>
      <trkpt lat="44.12892" lon="5.66908">
        <ele>1145.55</ele>
        <time>2020-03-12T11:56:52Z</time>
      </trkpt>
      <trkpt lat="44.12879" lon="5.66909">
        <ele>1142.66</ele>
        <time>2020-03-12T11:57:10Z</time>
      </trkpt>
      <trkpt lat="44.12873" lon="5.66896">
        <ele>1140.26</ele>
        <time>2020-03-12T11:57:26Z</time>
      </trkpt>
      <trkpt lat="44.12862" lon="5.66891">
        <ele>1137.38</ele>
        <time>2020-03-12T11:57:41Z</time>
      </trkpt>
      <trkpt lat="44.12842" lon="5.66884">
        <ele>1135.45</ele>
        <time>2020-03-12T11:57:58Z</time>
      </trkpt>
      <trkpt lat="44.12831" lon="5.66889">
        <ele>1134.97</ele>
        <time>2020-03-12T11:58:13Z</time>
      </trkpt>
      <trkpt lat="44.1281" lon="5.66906">
        <ele>1133.53</ele>
        <time>2020-03-12T11:58:33Z</time>
      </trkpt>
      <trkpt lat="44.12792" lon="5.66906">
        <ele>1133.05</ele>
        <time>2020-03-12T11:58:53Z</time>
      </trkpt>
      <trkpt lat="44.12787" lon="5.66905">
        <ele>1133.05</ele>
        <time>2020-03-12T11:58:59Z</time>
      </trkpt>
      <trkpt lat="44.12768" lon="5.66905">
        <ele>1131.61</ele>
        <time>2020-03-12T11:59:17Z</time>
      </trkpt>
      <trkpt lat="44.12749" lon="5.66907">
        <ele>1131.13</ele>
        <time>2020-03-12T11:59:34Z</time>
      </trkpt>
      <trkpt lat="44.12729" lon="5.66906">
        <ele>1130.17</ele>
        <time>2020-03-12T11:59:51Z</time>
      </trkpt>
      <trkpt lat="44.12718" lon="5.669">
        <ele>1129.21</ele>
        <time>2020-03-12T12:00:06Z</time>
      </trkpt>
      <trkpt lat="44.12706" lon="5.669">
        <ele>1130.17</ele>
        <time>2020-03-12T12:00:22Z</time>
      </trkpt>
      <trkpt lat="44.12692" lon="5.66904">
        <ele>1132.57</ele>
        <time>2020-03-12T12:00:38Z</time>
      </trkpt>
      <trkpt lat="44.12683" lon="5.66901">
        <ele>1134.49</ele>
        <time>2020-03-12T12:00:54Z</time>
      </trkpt>
      <trkpt lat="44.1267" lon="5.66896">
        <ele>1137.38</ele>
        <time>2020-03-12T12:01:11Z</time>
      </trkpt>
      <trkpt lat="44.1266" lon="5.66884">
        <ele>1138.82</ele>
        <time>2020-03-12T12:01:27Z</time>
      </trkpt>
      <trkpt lat="44.12647" lon="5.66879">
        <ele>1140.74</ele>
        <time>2020-03-12T12:01:43Z</time>
      </trkpt>
      <trkpt lat="44.12631" lon="5.66877">
        <ele>1142.18</ele>
        <time>2020-03-12T12:02:01Z</time>
      </trkpt>
      <trkpt lat="44.12613" lon="5.66872">
        <ele>1144.59</ele>
        <time>2020-03-12T12:02:19Z</time>
      </trkpt>
      <trkpt lat="44.12592" lon="5.66868">
        <ele>1146.51</ele>
        <time>2020-03-12T12:02:40Z</time>
      </trkpt>
      <trkpt lat="44.12591" lon="5.66867">
        <ele>1146.51</ele>
        <time>2020-03-12T12:02:42Z</time>
      </trkpt>
      <trkpt lat="44.1257" lon="5.66859">
        <ele>1147.95</ele>
        <time>2020-03-12T12:03:02Z</time>
      </trkpt>
      <trkpt lat="44.12549" lon="5.66848">
        <ele>1148.91</ele>
        <time>2020-03-12T12:03:22Z</time>
      </trkpt>
      <trkpt lat="44.12524" lon="5.66845">
        <ele>1150.84</ele>
        <time>2020-03-12T12:03:45Z</time>
      </trkpt>
      <trkpt lat="44.12512" lon="5.66831">
        <ele>1152.76</ele>
        <time>2020-03-12T12:04:04Z</time>
      </trkpt>
      <trkpt lat="44.12508" lon="5.6682">
        <ele>1153.72</ele>
        <time>2020-03-12T12:04:18Z</time>
      </trkpt>
      <trkpt lat="44.12506" lon="5.66811">
        <ele>1153.72</ele>
        <time>2020-03-12T12:04:32Z</time>
      </trkpt>
      <trkpt lat="44.12505" lon="5.66809">
        <ele>1153.72</ele>
        <time>2020-03-12T12:04:51Z</time>
      </trkpt>
      <trkpt lat="44.12506" lon="5.66809">
        <ele>1153.72</ele>
        <time>2020-03-12T12:05:10Z</time>
      </trkpt>
      <trkpt lat="44.12505" lon="5.66808">
        <ele>1153.72</ele>
        <time>2020-03-12T12:05:18Z</time>
      </trkpt>
      <trkpt lat="44.12494" lon="5.66789">
        <ele>1153.72</ele>
        <time>2020-03-12T12:05:36Z</time>
      </trkpt>
      <trkpt lat="44.12486" lon="5.66776">
        <ele>1154.68</ele>
        <time>2020-03-12T12:05:50Z</time>
      </trkpt>
      <trkpt lat="44.12484" lon="5.66767">
        <ele>1155.16</ele>
        <time>2020-03-12T12:05:57Z</time>
      </trkpt>
      <trkpt lat="44.1248" lon="5.66737">
        <ele>1154.68</ele>
        <time>2020-03-12T12:06:17Z</time>
      </trkpt>
      <trkpt lat="44.12477" lon="5.66723">
        <ele>1153.24</ele>
        <time>2020-03-12T12:06:27Z</time>
      </trkpt>
      <trkpt lat="44.12474" lon="5.66703">
        <ele>1150.84</ele>
        <time>2020-03-12T12:06:44Z</time>
      </trkpt>
      <trkpt lat="44.12471" lon="5.66694">
        <ele>1150.84</ele>
        <time>2020-03-12T12:06:51Z</time>
      </trkpt>
      <trkpt lat="44.12462" lon="5.66672">
        <ele>1148.91</ele>
        <time>2020-03-12T12:07:10Z</time>
      </trkpt>
      <trkpt lat="44.12454" lon="5.66658">
        <ele>1146.51</ele>
        <time>2020-03-12T12:07:29Z</time>
      </trkpt>
      <trkpt lat="44.12442" lon="5.66649">
        <ele>1143.14</ele>
        <time>2020-03-12T12:07:45Z</time>
      </trkpt>
      <trkpt lat="44.1243" lon="5.66639">
        <ele>1140.26</ele>
        <time>2020-03-12T12:08:03Z</time>
      </trkpt>
      <trkpt lat="44.12418" lon="5.66636">
        <ele>1137.38</ele>
        <time>2020-03-12T12:08:20Z</time>
      </trkpt>
      <trkpt lat="44.12413" lon="5.66636">
        <ele>1136.42</ele>
        <time>2020-03-12T12:08:28Z</time>
      </trkpt>
      <trkpt lat="44.12393" lon="5.66632">
        <ele>1134.01</ele>
        <time>2020-03-12T12:08:46Z</time>
      </trkpt>
      <trkpt lat="44.12383" lon="5.66635">
        <ele>1131.13</ele>
        <time>2020-03-12T12:09:02Z</time>
      </trkpt>
      <trkpt lat="44.12374" lon="5.66629">
        <ele>1130.17</ele>
        <time>2020-03-12T12:09:12Z</time>
      </trkpt>
      <trkpt lat="44.12361" lon="5.66607">
        <ele>1127.76</ele>
        <time>2020-03-12T12:09:29Z</time>
      </trkpt>
      <trkpt lat="44.12354" lon="5.66591">
        <ele>1125.36</ele>
        <time>2020-03-12T12:09:44Z</time>
      </trkpt>
      <trkpt lat="44.12356" lon="5.6657">
        <ele>1122.48</ele>
        <time>2020-03-12T12:10:01Z</time>
      </trkpt>
      <trkpt lat="44.12352" lon="5.66552">
        <ele>1120.07</ele>
        <time>2020-03-12T12:10:18Z</time>
      </trkpt>
      <trkpt lat="44.1234" lon="5.66536">
        <ele>1118.15</ele>
        <time>2020-03-12T12:10:35Z</time>
      </trkpt>
      <trkpt lat="44.12326" lon="5.66533">
        <ele>1116.71</ele>
        <time>2020-03-12T12:10:49Z</time>
      </trkpt>
      <trkpt lat="44.12311" lon="5.66528">
        <ele>1116.23</ele>
        <time>2020-03-12T12:11:03Z</time>
      </trkpt>
      <trkpt lat="44.123" lon="5.6653">
        <ele>1115.75</ele>
        <time>2020-03-12T12:11:17Z</time>
      </trkpt>
      <trkpt lat="44.12279" lon="5.66534">
        <ele>1114.31</ele>
        <time>2020-03-12T12:11:33Z</time>
      </trkpt>
      <trkpt lat="44.12262" lon="5.66533">
        <ele>1112.86</ele>
        <time>2020-03-12T12:11:50Z</time>
      </trkpt>
      <trkpt lat="44.12245" lon="5.66533">
        <ele>1111.9</ele>
        <time>2020-03-12T12:12:07Z</time>
      </trkpt>
      <trkpt lat="44.12225" lon="5.66539">
        <ele>1109.98</ele>
        <time>2020-03-12T12:12:26Z</time>
      </trkpt>
      <trkpt lat="44.12206" lon="5.66553">
        <ele>1108.54</ele>
        <time>2020-03-12T12:12:45Z</time>
      </trkpt>
      <trkpt lat="44.12195" lon="5.66558">
        <ele>1107.1</ele>
        <time>2020-03-12T12:13:00Z</time>
      </trkpt>
      <trkpt lat="44.12177" lon="5.66565">
        <ele>1106.13</ele>
        <time>2020-03-12T12:13:16Z</time>
      </trkpt>
      <trkpt lat="44.12176" lon="5.66566">
        <ele>1106.13</ele>
        <time>2020-03-12T12:13:17Z</time>
      </trkpt>
      <trkpt lat="44.12154" lon="5.66567">
        <ele>1105.17</ele>
        <time>2020-03-12T12:13:36Z</time>
      </trkpt>
      <trkpt lat="44.12136" lon="5.66562">
        <ele>1103.25</ele>
        <time>2020-03-12T12:13:53Z</time>
      </trkpt>
      <trkpt lat="44.12117" lon="5.6655">
        <ele>1101.81</ele>
        <time>2020-03-12T12:14:12Z</time>
      </trkpt>
      <trkpt lat="44.12116" lon="5.66549">
        <ele>1101.33</ele>
        <time>2020-03-12T12:14:13Z</time>
      </trkpt>
      <trkpt lat="44.12106" lon="5.6653">
        <ele>1099.4</ele>
        <time>2020-03-12T12:14:29Z</time>
      </trkpt>
      <trkpt lat="44.12097" lon="5.66507">
        <ele>1098.92</ele>
        <time>2020-03-12T12:14:47Z</time>
      </trkpt>
      <trkpt lat="44.12075" lon="5.66493">
        <ele>1097.96</ele>
        <time>2020-03-12T12:15:07Z</time>
      </trkpt>
      <trkpt lat="44.12052" lon="5.66482">
        <ele>1096.04</ele>
        <time>2020-03-12T12:15:25Z</time>
      </trkpt>
      <trkpt lat="44.1205" lon="5.66482">
        <ele>1096.04</ele>
        <time>2020-03-12T12:15:27Z</time>
      </trkpt>
      <trkpt lat="44.12039" lon="5.66484">
        <ele>1095.08</ele>
        <time>2020-03-12T12:15:37Z</time>
      </trkpt>
      <trkpt lat="44.12027" lon="5.66492">
        <ele>1094.12</ele>
        <time>2020-03-12T12:15:55Z</time>
      </trkpt>
      <trkpt lat="44.12031" lon="5.665">
        <ele>1097.48</ele>
        <time>2020-03-12T12:16:07Z</time>
      </trkpt>
      <trkpt lat="44.1203" lon="5.66508">
        <ele>1100.85</ele>
        <time>2020-03-12T12:16:21Z</time>
      </trkpt>
      <trkpt lat="44.12018" lon="5.66508">
        <ele>1099.4</ele>
        <time>2020-03-12T12:16:32Z</time>
      </trkpt>
      <trkpt lat="44.12017" lon="5.66511">
        <ele>1097.96</ele>
        <time>2020-03-12T12:16:35Z</time>
      </trkpt>
      <trkpt lat="44.12017" lon="5.66513">
        <ele>1097.96</ele>
        <time>2020-03-12T12:16:36Z</time>
      </trkpt>
      <trkpt lat="44.12017" lon="5.66525">
        <ele>1097.48</ele>
        <time>2020-03-12T12:16:53Z</time>
      </trkpt>
      <trkpt lat="44.1202" lon="5.66539">
        <ele>1097</ele>
        <time>2020-03-12T12:17:09Z</time>
      </trkpt>
      <trkpt lat="44.12032" lon="5.66538">
        <ele>1098.92</ele>
        <time>2020-03-12T12:17:25Z</time>
      </trkpt>
      <trkpt lat="44.12026" lon="5.66534">
        <ele>1099.4</ele>
        <time>2020-03-12T12:17:43Z</time>
      </trkpt>
      <trkpt lat="44.12023" lon="5.6653">
        <ele>1097.96</ele>
        <time>2020-03-12T12:18:05Z</time>
      </trkpt>
      <trkpt lat="44.12022" lon="5.66523">
        <ele>1097.96</ele>
        <time>2020-03-12T12:18:22Z</time>
      </trkpt>
      <trkpt lat="44.1202" lon="5.66515">
        <ele>1096.52</ele>
        <time>2020-03-12T12:18:43Z</time>
      </trkpt>
      <trkpt lat="44.12021" lon="5.66516">
        <ele>1097.96</ele>
        <time>2020-03-12T12:18:52Z</time>
      </trkpt>
      <trkpt lat="44.12025" lon="5.66509">
        <ele>1097.96</ele>
        <time>2020-03-12T12:19:17Z</time>
      </trkpt>
      <trkpt lat="44.12021" lon="5.66517">
        <ele>1098.44</ele>
        <time>2020-03-12T12:19:39Z</time>
      </trkpt>
      <trkpt lat="44.12027" lon="5.66515">
        <ele>1098.44</ele>
        <time>2020-03-12T12:20:04Z</time>
      </trkpt>
      <trkpt lat="44.12027" lon="5.66518">
        <ele>1098.44</ele>
        <time>2020-03-12T12:20:27Z</time>
      </trkpt>
      <trkpt lat="44.12009" lon="5.66508">
        <ele>1097</ele>
        <time>2020-03-12T12:20:41Z</time>
      </trkpt>
      <trkpt lat="44.1201" lon="5.66515">
        <ele>1097</ele>
        <time>2020-03-12T12:20:55Z</time>
      </trkpt>
      <trkpt lat="44.12008" lon="5.66515">
        <ele>1097</ele>
        <time>2020-03-12T12:21:14Z</time>
      </trkpt>
      <trkpt lat="44.11993" lon="5.66512">
        <ele>1096.52</ele>
        <time>2020-03-12T12:21:30Z</time>
      </trkpt>
      <trkpt lat="44.12003" lon="5.66505">
        <ele>1093.64</ele>
        <time>2020-03-12T12:21:45Z</time>
      </trkpt>
      <trkpt lat="44.1201" lon="5.66497">
        <ele>1092.68</ele>
        <time>2020-03-12T12:21:52Z</time>
      </trkpt>
      <trkpt lat="44.12009" lon="5.66495">
        <ele>1092.2</ele>
        <time>2020-03-12T12:21:54Z</time>
      </trkpt>
      <trkpt lat="44.11999" lon="5.66495">
        <ele>1090.75</ele>
        <time>2020-03-12T12:22:03Z</time>
      </trkpt>
      <trkpt lat="44.11985" lon="5.66498">
        <ele>1088.83</ele>
        <time>2020-03-12T12:22:16Z</time>
      </trkpt>
      <trkpt lat="44.11965" lon="5.66501">
        <ele>1087.39</ele>
        <time>2020-03-12T12:22:33Z</time>
      </trkpt>
      <trkpt lat="44.11935" lon="5.66501">
        <ele>1084.02</ele>
        <time>2020-03-12T12:22:56Z</time>
      </trkpt>
      <trkpt lat="44.1192" lon="5.66525">
        <ele>1081.62</ele>
        <time>2020-03-12T12:23:15Z</time>
      </trkpt>
      <trkpt lat="44.11914" lon="5.66529">
        <ele>1081.14</ele>
        <time>2020-03-12T12:23:20Z</time>
      </trkpt>
      <trkpt lat="44.11894" lon="5.66536">
        <ele>1077.78</ele>
        <time>2020-03-12T12:23:41Z</time>
      </trkpt>
      <trkpt lat="44.11893" lon="5.66536">
        <ele>1077.78</ele>
        <time>2020-03-12T12:23:42Z</time>
      </trkpt>
      <trkpt lat="44.11865" lon="5.66543">
        <ele>1075.85</ele>
        <time>2020-03-12T12:24:06Z</time>
      </trkpt>
      <trkpt lat="44.11861" lon="5.66545">
        <ele>1074.89</ele>
        <time>2020-03-12T12:24:10Z</time>
      </trkpt>
      <trkpt lat="44.11845" lon="5.66547">
        <ele>1074.41</ele>
        <time>2020-03-12T12:24:28Z</time>
      </trkpt>
      <trkpt lat="44.11843" lon="5.66553">
        <ele>1073.93</ele>
        <time>2020-03-12T12:24:44Z</time>
      </trkpt>
      <trkpt lat="44.1184" lon="5.66553">
        <ele>1073.93</ele>
        <time>2020-03-12T12:25:01Z</time>
      </trkpt>
      <trkpt lat="44.11829" lon="5.66541">
        <ele>1073.45</ele>
        <time>2020-03-12T12:25:21Z</time>
      </trkpt>
      <trkpt lat="44.11818" lon="5.66539">
        <ele>1071.05</ele>
        <time>2020-03-12T12:25:36Z</time>
      </trkpt>
      <trkpt lat="44.11806" lon="5.66533">
        <ele>1071.05</ele>
        <time>2020-03-12T12:25:53Z</time>
      </trkpt>
      <trkpt lat="44.11798" lon="5.6653">
        <ele>1072.01</ele>
        <time>2020-03-12T12:26:03Z</time>
      </trkpt>
      <trkpt lat="44.11792" lon="5.66521">
        <ele>1072.49</ele>
        <time>2020-03-12T12:26:20Z</time>
      </trkpt>
      <trkpt lat="44.11789" lon="5.66517">
        <ele>1072.97</ele>
        <time>2020-03-12T12:26:25Z</time>
      </trkpt>
      <trkpt lat="44.11783" lon="5.66515">
        <ele>1073.93</ele>
        <time>2020-03-12T12:26:30Z</time>
      </trkpt>
      <trkpt lat="44.11774" lon="5.66514">
        <ele>1074.41</ele>
        <time>2020-03-12T12:26:46Z</time>
      </trkpt>
      <trkpt lat="44.11764" lon="5.66499">
        <ele>1075.37</ele>
        <time>2020-03-12T12:27:03Z</time>
      </trkpt>
      <trkpt lat="44.11746" lon="5.66489">
        <ele>1077.29</ele>
        <time>2020-03-12T12:27:20Z</time>
      </trkpt>
      <trkpt lat="44.11733" lon="5.66483">
        <ele>1079.22</ele>
        <time>2020-03-12T12:27:38Z</time>
      </trkpt>
      <trkpt lat="44.11713" lon="5.66478">
        <ele>1081.14</ele>
        <time>2020-03-12T12:27:59Z</time>
      </trkpt>
      <trkpt lat="44.11701" lon="5.66471">
        <ele>1082.58</ele>
        <time>2020-03-12T12:28:17Z</time>
      </trkpt>
      <trkpt lat="44.11683" lon="5.66462">
        <ele>1084.5</ele>
        <time>2020-03-12T12:28:41Z</time>
      </trkpt>
      <trkpt lat="44.11671" lon="5.66457">
        <ele>1086.43</ele>
        <time>2020-03-12T12:28:58Z</time>
      </trkpt>
      <trkpt lat="44.11655" lon="5.66445">
        <ele>1088.83</ele>
        <time>2020-03-12T12:29:21Z</time>
      </trkpt>
      <trkpt lat="44.11637" lon="5.66438">
        <ele>1089.79</ele>
        <time>2020-03-12T12:29:42Z</time>
      </trkpt>
      <trkpt lat="44.11621" lon="5.66429">
        <ele>1091.23</ele>
        <time>2020-03-12T12:30:01Z</time>
      </trkpt>
      <trkpt lat="44.11604" lon="5.66421">
        <ele>1092.2</ele>
        <time>2020-03-12T12:30:19Z</time>
      </trkpt>
      <trkpt lat="44.11585" lon="5.66418">
        <ele>1093.16</ele>
        <time>2020-03-12T12:30:36Z</time>
      </trkpt>
      <trkpt lat="44.11567" lon="5.66412">
        <ele>1094.6</ele>
        <time>2020-03-12T12:30:57Z</time>
      </trkpt>
      <trkpt lat="44.11548" lon="5.66408">
        <ele>1097</ele>
        <time>2020-03-12T12:31:18Z</time>
      </trkpt>
      <trkpt lat="44.11535" lon="5.66393">
        <ele>1099.89</ele>
        <time>2020-03-12T12:31:37Z</time>
      </trkpt>
      <trkpt lat="44.11527" lon="5.66373">
        <ele>1101.33</ele>
        <time>2020-03-12T12:31:55Z</time>
      </trkpt>
      <trkpt lat="44.11519" lon="5.66356">
        <ele>1101.33</ele>
        <time>2020-03-12T12:32:09Z</time>
      </trkpt>
      <trkpt lat="44.11513" lon="5.66336">
        <ele>1102.77</ele>
        <time>2020-03-12T12:32:25Z</time>
      </trkpt>
      <trkpt lat="44.11509" lon="5.66317">
        <ele>1103.25</ele>
        <time>2020-03-12T12:32:40Z</time>
      </trkpt>
      <trkpt lat="44.11504" lon="5.66306">
        <ele>1104.21</ele>
        <time>2020-03-12T12:32:56Z</time>
      </trkpt>
      <trkpt lat="44.11504" lon="5.66304">
        <ele>1104.21</ele>
        <time>2020-03-12T12:33:09Z</time>
      </trkpt>
      <trkpt lat="44.115" lon="5.66305">
        <ele>1104.21</ele>
        <time>2020-03-12T12:33:42Z</time>
      </trkpt>
      <trkpt lat="44.1149" lon="5.6629">
        <ele>1104.21</ele>
        <time>2020-03-12T12:33:58Z</time>
      </trkpt>
      <trkpt lat="44.11475" lon="5.6629">
        <ele>1104.21</ele>
        <time>2020-03-12T12:34:16Z</time>
      </trkpt>
      <trkpt lat="44.11455" lon="5.66291">
        <ele>1104.21</ele>
        <time>2020-03-12T12:34:34Z</time>
      </trkpt>
      <trkpt lat="44.11439" lon="5.66299">
        <ele>1105.17</ele>
        <time>2020-03-12T12:34:53Z</time>
      </trkpt>
      <trkpt lat="44.11419" lon="5.66308">
        <ele>1105.17</ele>
        <time>2020-03-12T12:35:12Z</time>
      </trkpt>
      <trkpt lat="44.11399" lon="5.66313">
        <ele>1106.13</ele>
        <time>2020-03-12T12:35:33Z</time>
      </trkpt>
      <trkpt lat="44.11381" lon="5.66317">
        <ele>1107.58</ele>
        <time>2020-03-12T12:35:50Z</time>
      </trkpt>
      <trkpt lat="44.11363" lon="5.66317">
        <ele>1108.06</ele>
        <time>2020-03-12T12:36:07Z</time>
      </trkpt>
      <trkpt lat="44.11346" lon="5.66318">
        <ele>1109.02</ele>
        <time>2020-03-12T12:36:24Z</time>
      </trkpt>
      <trkpt lat="44.11336" lon="5.66327">
        <ele>1110.46</ele>
        <time>2020-03-12T12:36:40Z</time>
      </trkpt>
      <trkpt lat="44.11325" lon="5.66335">
        <ele>1111.42</ele>
        <time>2020-03-12T12:36:51Z</time>
      </trkpt>
      <trkpt lat="44.11315" lon="5.6634">
        <ele>1114.31</ele>
        <time>2020-03-12T12:37:08Z</time>
      </trkpt>
      <trkpt lat="44.11297" lon="5.66338">
        <ele>1117.67</ele>
        <time>2020-03-12T12:37:25Z</time>
      </trkpt>
      <trkpt lat="44.1128" lon="5.66331">
        <ele>1119.59</ele>
        <time>2020-03-12T12:37:40Z</time>
      </trkpt>
      <trkpt lat="44.11259" lon="5.66333">
        <ele>1122.48</ele>
        <time>2020-03-12T12:38:01Z</time>
      </trkpt>
      <trkpt lat="44.1125" lon="5.66334">
        <ele>1123.44</ele>
        <time>2020-03-12T12:38:11Z</time>
      </trkpt>
      <trkpt lat="44.11232" lon="5.66336">
        <ele>1124.4</ele>
        <time>2020-03-12T12:38:29Z</time>
      </trkpt>
      <trkpt lat="44.11213" lon="5.66331">
        <ele>1126.32</ele>
        <time>2020-03-12T12:38:47Z</time>
      </trkpt>
      <trkpt lat="44.11201" lon="5.66325">
        <ele>1126.32</ele>
        <time>2020-03-12T12:39:02Z</time>
      </trkpt>
      <trkpt lat="44.11185" lon="5.6632">
        <ele>1127.76</ele>
        <time>2020-03-12T12:39:20Z</time>
      </trkpt>
      <trkpt lat="44.11166" lon="5.66323">
        <ele>1127.76</ele>
        <time>2020-03-12T12:39:38Z</time>
      </trkpt>
      <trkpt lat="44.11161" lon="5.66328">
        <ele>1126.32</ele>
        <time>2020-03-12T12:39:51Z</time>
      </trkpt>
      <trkpt lat="44.11162" lon="5.66331">
        <ele>1125.84</ele>
        <time>2020-03-12T12:39:55Z</time>
      </trkpt>
      <trkpt lat="44.11143" lon="5.66341">
        <ele>1124.4</ele>
        <time>2020-03-12T12:40:15Z</time>
      </trkpt>
      <trkpt lat="44.1112" lon="5.66345">
        <ele>1121.52</ele>
        <time>2020-03-12T12:40:35Z</time>
      </trkpt>
      <trkpt lat="44.11118" lon="5.66347">
        <ele>1121.52</ele>
        <time>2020-03-12T12:40:38Z</time>
      </trkpt>
      <trkpt lat="44.11111" lon="5.66361">
        <ele>1119.11</ele>
        <time>2020-03-12T12:40:57Z</time>
      </trkpt>
      <trkpt lat="44.11113" lon="5.66356">
        <ele>1120.07</ele>
        <time>2020-03-12T12:41:21Z</time>
      </trkpt>
      <trkpt lat="44.11118" lon="5.66346">
        <ele>1122</ele>
        <time>2020-03-12T12:41:36Z</time>
      </trkpt>
      <trkpt lat="44.11115" lon="5.66335">
        <ele>1122.48</ele>
        <time>2020-03-12T12:41:46Z</time>
      </trkpt>
      <trkpt lat="44.11108" lon="5.66324">
        <ele>1123.44</ele>
        <time>2020-03-12T12:42:04Z</time>
      </trkpt>
      <trkpt lat="44.11102" lon="5.6632">
        <ele>1123.44</ele>
        <time>2020-03-12T12:42:19Z</time>
      </trkpt>
      <trkpt lat="44.11089" lon="5.66319">
        <ele>1121.52</ele>
        <time>2020-03-12T12:42:38Z</time>
      </trkpt>
      <trkpt lat="44.11071" lon="5.66315">
        <ele>1120.07</ele>
        <time>2020-03-12T12:42:55Z</time>
      </trkpt>
      <trkpt lat="44.11049" lon="5.66314">
        <ele>1117.67</ele>
        <time>2020-03-12T12:43:16Z</time>
      </trkpt>
      <trkpt lat="44.11034" lon="5.66316">
        <ele>1115.27</ele>
        <time>2020-03-12T12:43:33Z</time>
      </trkpt>
      <trkpt lat="44.11014" lon="5.66316">
        <ele>1112.38</ele>
        <time>2020-03-12T12:43:53Z</time>
      </trkpt>
      <trkpt lat="44.10992" lon="5.66319">
        <ele>1109.5</ele>
        <time>2020-03-12T12:44:12Z</time>
      </trkpt>
      <trkpt lat="44.10985" lon="5.66318">
        <ele>1109.5</ele>
        <time>2020-03-12T12:44:18Z</time>
      </trkpt>
      <trkpt lat="44.10965" lon="5.66319">
        <ele>1107.58</ele>
        <time>2020-03-12T12:44:37Z</time>
      </trkpt>
      <trkpt lat="44.10949" lon="5.6632">
        <ele>1105.65</ele>
        <time>2020-03-12T12:44:52Z</time>
      </trkpt>
      <trkpt lat="44.10937" lon="5.66325">
        <ele>1105.17</ele>
        <time>2020-03-12T12:45:04Z</time>
      </trkpt>
      <trkpt lat="44.10926" lon="5.66333">
        <ele>1104.21</ele>
        <time>2020-03-12T12:45:21Z</time>
      </trkpt>
      <trkpt lat="44.10925" lon="5.66328">
        <ele>1104.21</ele>
        <time>2020-03-12T12:45:38Z</time>
      </trkpt>
      <trkpt lat="44.10924" lon="5.66337">
        <ele>1104.21</ele>
        <time>2020-03-12T12:45:53Z</time>
      </trkpt>
      <trkpt lat="44.10917" lon="5.66345">
        <ele>1103.73</ele>
        <time>2020-03-12T12:46:06Z</time>
      </trkpt>
      <trkpt lat="44.10907" lon="5.66352">
        <ele>1103.25</ele>
        <time>2020-03-12T12:46:22Z</time>
      </trkpt>
      <trkpt lat="44.10894" lon="5.66356">
        <ele>1101.81</ele>
        <time>2020-03-12T12:46:40Z</time>
      </trkpt>
      <trkpt lat="44.10879" lon="5.66365">
        <ele>1101.33</ele>
        <time>2020-03-12T12:46:57Z</time>
      </trkpt>
      <trkpt lat="44.10862" lon="5.66377">
        <ele>1100.85</ele>
        <time>2020-03-12T12:47:15Z</time>
      </trkpt>
      <trkpt lat="44.10846" lon="5.66377">
        <ele>1099.89</ele>
        <time>2020-03-12T12:47:29Z</time>
      </trkpt>
      <trkpt lat="44.10827" lon="5.6638">
        <ele>1099.89</ele>
        <time>2020-03-12T12:47:48Z</time>
      </trkpt>
      <trkpt lat="44.10819" lon="5.66387">
        <ele>1099.89</ele>
        <time>2020-03-12T12:47:59Z</time>
      </trkpt>
      <trkpt lat="44.10802" lon="5.664">
        <ele>1099.89</ele>
        <time>2020-03-12T12:48:19Z</time>
      </trkpt>
      <trkpt lat="44.10787" lon="5.66409">
        <ele>1099.89</ele>
        <time>2020-03-12T12:48:33Z</time>
      </trkpt>
      <trkpt lat="44.10785" lon="5.66412">
        <ele>1099.89</ele>
        <time>2020-03-12T12:48:49Z</time>
      </trkpt>
      <trkpt lat="44.10784" lon="5.66412">
        <ele>1099.89</ele>
        <time>2020-03-12T12:48:57Z</time>
      </trkpt>
      <trkpt lat="44.10763" lon="5.66425">
        <ele>1099.89</ele>
        <time>2020-03-12T12:49:14Z</time>
      </trkpt>
      <trkpt lat="44.10744" lon="5.66436">
        <ele>1099.89</ele>
        <time>2020-03-12T12:49:31Z</time>
      </trkpt>
      <trkpt lat="44.10725" lon="5.66453">
        <ele>1099.89</ele>
        <time>2020-03-12T12:49:47Z</time>
      </trkpt>
      <trkpt lat="44.10717" lon="5.66467">
        <ele>1099.89</ele>
        <time>2020-03-12T12:49:58Z</time>
      </trkpt>
      <trkpt lat="44.10703" lon="5.66486">
        <ele>1098.92</ele>
        <time>2020-03-12T12:50:13Z</time>
      </trkpt>
      <trkpt lat="44.10703" lon="5.66487">
        <ele>1098.92</ele>
        <time>2020-03-12T12:50:14Z</time>
      </trkpt>
      <trkpt lat="44.10688" lon="5.66499">
        <ele>1096.52</ele>
        <time>2020-03-12T12:50:32Z</time>
      </trkpt>
      <trkpt lat="44.10672" lon="5.66516">
        <ele>1094.6</ele>
        <time>2020-03-12T12:50:49Z</time>
      </trkpt>
      <trkpt lat="44.10654" lon="5.66522">
        <ele>1093.16</ele>
        <time>2020-03-12T12:51:07Z</time>
      </trkpt>
      <trkpt lat="44.10636" lon="5.66536">
        <ele>1090.75</ele>
        <time>2020-03-12T12:51:25Z</time>
      </trkpt>
      <trkpt lat="44.10617" lon="5.66551">
        <ele>1088.35</ele>
        <time>2020-03-12T12:51:45Z</time>
      </trkpt>
      <trkpt lat="44.10603" lon="5.66562">
        <ele>1084.99</ele>
        <time>2020-03-12T12:52:04Z</time>
      </trkpt>
      <trkpt lat="44.10584" lon="5.66574">
        <ele>1082.58</ele>
        <time>2020-03-12T12:52:22Z</time>
      </trkpt>
      <trkpt lat="44.10571" lon="5.66582">
        <ele>1079.7</ele>
        <time>2020-03-12T12:52:38Z</time>
      </trkpt>
      <trkpt lat="44.10565" lon="5.66583">
        <ele>1077.78</ele>
        <time>2020-03-12T12:52:58Z</time>
      </trkpt>
      <trkpt lat="44.10566" lon="5.66587">
        <ele>1077.78</ele>
        <time>2020-03-12T12:53:29Z</time>
      </trkpt>
      <trkpt lat="44.10569" lon="5.66588">
        <ele>1077.78</ele>
        <time>2020-03-12T12:54:08Z</time>
      </trkpt>
      <trkpt lat="44.1057" lon="5.66589">
        <ele>1077.78</ele>
        <time>2020-03-12T12:54:37Z</time>
      </trkpt>
      <trkpt lat="44.10565" lon="5.66587">
        <ele>1078.74</ele>
        <time>2020-03-12T12:54:58Z</time>
      </trkpt>
      <trkpt lat="44.10559" lon="5.66591">
        <ele>1078.74</ele>
        <time>2020-03-12T12:55:03Z</time>
      </trkpt>
      <trkpt lat="44.10542" lon="5.66594">
        <ele>1075.37</ele>
        <time>2020-03-12T12:55:23Z</time>
      </trkpt>
      <trkpt lat="44.10535" lon="5.666">
        <ele>1073.45</ele>
        <time>2020-03-12T12:55:38Z</time>
      </trkpt>
      <trkpt lat="44.10524" lon="5.66608">
        <ele>1071.05</ele>
        <time>2020-03-12T12:55:53Z</time>
      </trkpt>
      <trkpt lat="44.10509" lon="5.66619">
        <ele>1068.16</ele>
        <time>2020-03-12T12:56:11Z</time>
      </trkpt>
      <trkpt lat="44.10502" lon="5.6662">
        <ele>1066.72</ele>
        <time>2020-03-12T12:56:18Z</time>
      </trkpt>
      <trkpt lat="44.10484" lon="5.66631">
        <ele>1064.8</ele>
        <time>2020-03-12T12:56:37Z</time>
      </trkpt>
      <trkpt lat="44.10475" lon="5.66637">
        <ele>1062.87</ele>
        <time>2020-03-12T12:56:51Z</time>
      </trkpt>
      <trkpt lat="44.10472" lon="5.66643">
        <ele>1061.91</ele>
        <time>2020-03-12T12:57:07Z</time>
      </trkpt>
      <trkpt lat="44.10468" lon="5.66649">
        <ele>1060.95</ele>
        <time>2020-03-12T12:57:23Z</time>
      </trkpt>
      <trkpt lat="44.10463" lon="5.66653">
        <ele>1059.51</ele>
        <time>2020-03-12T12:57:38Z</time>
      </trkpt>
      <trkpt lat="44.10451" lon="5.66664">
        <ele>1057.59</ele>
        <time>2020-03-12T12:57:55Z</time>
      </trkpt>
      <trkpt lat="44.10446" lon="5.66663">
        <ele>1056.63</ele>
        <time>2020-03-12T12:58:11Z</time>
      </trkpt>
      <trkpt lat="44.10434" lon="5.66673">
        <ele>1055.18</ele>
        <time>2020-03-12T12:58:26Z</time>
      </trkpt>
      <trkpt lat="44.10422" lon="5.66679">
        <ele>1053.74</ele>
        <time>2020-03-12T12:58:38Z</time>
      </trkpt>
      <trkpt lat="44.10407" lon="5.66681">
        <ele>1051.82</ele>
        <time>2020-03-12T12:58:55Z</time>
      </trkpt>
      <trkpt lat="44.10407" lon="5.66686">
        <ele>1051.82</ele>
        <time>2020-03-12T12:59:17Z</time>
      </trkpt>
      <trkpt lat="44.10404" lon="5.66688">
        <ele>1051.34</ele>
        <time>2020-03-12T12:59:20Z</time>
      </trkpt>
      <trkpt lat="44.10381" lon="5.66696">
        <ele>1051.34</ele>
        <time>2020-03-12T12:59:41Z</time>
      </trkpt>
      <trkpt lat="44.10367" lon="5.66704">
        <ele>1051.34</ele>
        <time>2020-03-12T12:59:58Z</time>
      </trkpt>
      <trkpt lat="44.10355" lon="5.66708">
        <ele>1052.3</ele>
        <time>2020-03-12T13:00:10Z</time>
      </trkpt>
      <trkpt lat="44.10342" lon="5.66712">
        <ele>1053.26</ele>
        <time>2020-03-12T13:00:26Z</time>
      </trkpt>
      <trkpt lat="44.10323" lon="5.66717">
        <ele>1055.18</ele>
        <time>2020-03-12T13:00:46Z</time>
      </trkpt>
      <trkpt lat="44.10308" lon="5.66722">
        <ele>1056.63</ele>
        <time>2020-03-12T13:01:08Z</time>
      </trkpt>
      <trkpt lat="44.10289" lon="5.66726">
        <ele>1058.07</ele>
        <time>2020-03-12T13:01:26Z</time>
      </trkpt>
      <trkpt lat="44.1027" lon="5.66731">
        <ele>1059.51</ele>
        <time>2020-03-12T13:01:43Z</time>
      </trkpt>
      <trkpt lat="44.10252" lon="5.66735">
        <ele>1060.95</ele>
        <time>2020-03-12T13:02:01Z</time>
      </trkpt>
      <trkpt lat="44.10231" lon="5.6674">
        <ele>1060.95</ele>
        <time>2020-03-12T13:02:20Z</time>
      </trkpt>
      <trkpt lat="44.10209" lon="5.66745">
        <ele>1061.91</ele>
        <time>2020-03-12T13:02:39Z</time>
      </trkpt>
      <trkpt lat="44.10189" lon="5.6675">
        <ele>1061.91</ele>
        <time>2020-03-12T13:02:58Z</time>
      </trkpt>
      <trkpt lat="44.10175" lon="5.66756">
        <ele>1061.91</ele>
        <time>2020-03-12T13:03:13Z</time>
      </trkpt>
      <trkpt lat="44.10159" lon="5.66761">
        <ele>1060.95</ele>
        <time>2020-03-12T13:03:28Z</time>
      </trkpt>
      <trkpt lat="44.10135" lon="5.66766">
        <ele>1059.51</ele>
        <time>2020-03-12T13:03:47Z</time>
      </trkpt>
      <trkpt lat="44.10115" lon="5.66773">
        <ele>1057.11</ele>
        <time>2020-03-12T13:04:06Z</time>
      </trkpt>
      <trkpt lat="44.10097" lon="5.66782">
        <ele>1055.18</ele>
        <time>2020-03-12T13:04:23Z</time>
      </trkpt>
      <trkpt lat="44.10077" lon="5.66797">
        <ele>1053.26</ele>
        <time>2020-03-12T13:04:42Z</time>
      </trkpt>
      <trkpt lat="44.10058" lon="5.668">
        <ele>1049.42</ele>
        <time>2020-03-12T13:05:01Z</time>
      </trkpt>
      <trkpt lat="44.10046" lon="5.66806">
        <ele>1047.97</ele>
        <time>2020-03-12T13:05:16Z</time>
      </trkpt>
      <trkpt lat="44.10029" lon="5.66821">
        <ele>1045.09</ele>
        <time>2020-03-12T13:05:34Z</time>
      </trkpt>
      <trkpt lat="44.10023" lon="5.66824">
        <ele>1043.17</ele>
        <time>2020-03-12T13:05:41Z</time>
      </trkpt>
      <trkpt lat="44.10011" lon="5.66828">
        <ele>1039.8</ele>
        <time>2020-03-12T13:05:58Z</time>
      </trkpt>
      <trkpt lat="44.10001" lon="5.66832">
        <ele>1036.44</ele>
        <time>2020-03-12T13:06:11Z</time>
      </trkpt>
      <trkpt lat="44.09996" lon="5.66831">
        <ele>1035.96</ele>
        <time>2020-03-12T13:06:16Z</time>
      </trkpt>
      <trkpt lat="44.09983" lon="5.66832">
        <ele>1031.63</ele>
        <time>2020-03-12T13:06:29Z</time>
      </trkpt>
      <trkpt lat="44.09974" lon="5.66833">
        <ele>1030.67</ele>
        <time>2020-03-12T13:06:38Z</time>
      </trkpt>
      <trkpt lat="44.09955" lon="5.66843">
        <ele>1027.79</ele>
        <time>2020-03-12T13:06:58Z</time>
      </trkpt>
      <trkpt lat="44.0995" lon="5.66845">
        <ele>1027.31</ele>
        <time>2020-03-12T13:07:03Z</time>
      </trkpt>
      <trkpt lat="44.09926" lon="5.66853">
        <ele>1024.42</ele>
        <time>2020-03-12T13:07:28Z</time>
      </trkpt>
      <trkpt lat="44.09907" lon="5.66852">
        <ele>1023.46</ele>
        <time>2020-03-12T13:07:46Z</time>
      </trkpt>
      <trkpt lat="44.09902" lon="5.66853">
        <ele>1022.98</ele>
        <time>2020-03-12T13:08:00Z</time>
      </trkpt>
      <trkpt lat="44.09878" lon="5.66859">
        <ele>1022.5</ele>
        <time>2020-03-12T13:08:19Z</time>
      </trkpt>
      <trkpt lat="44.09859" lon="5.66868">
        <ele>1020.1</ele>
        <time>2020-03-12T13:08:38Z</time>
      </trkpt>
      <trkpt lat="44.09841" lon="5.66869">
        <ele>1018.65</ele>
        <time>2020-03-12T13:08:57Z</time>
      </trkpt>
      <trkpt lat="44.09834" lon="5.6687">
        <ele>1017.69</ele>
        <time>2020-03-12T13:09:16Z</time>
      </trkpt>
      <trkpt lat="44.09817" lon="5.66866">
        <ele>1016.25</ele>
        <time>2020-03-12T13:09:32Z</time>
      </trkpt>
      <trkpt lat="44.09814" lon="5.66867">
        <ele>1015.77</ele>
        <time>2020-03-12T13:09:35Z</time>
      </trkpt>
      <trkpt lat="44.09794" lon="5.66872">
        <ele>1012.89</ele>
        <time>2020-03-12T13:09:55Z</time>
      </trkpt>
      <trkpt lat="44.09775" lon="5.66877">
        <ele>1009.52</ele>
        <time>2020-03-12T13:10:15Z</time>
      </trkpt>
      <trkpt lat="44.09767" lon="5.6688">
        <ele>1007.6</ele>
        <time>2020-03-12T13:10:23Z</time>
      </trkpt>
      <trkpt lat="44.09753" lon="5.66886">
        <ele>1005.68</ele>
        <time>2020-03-12T13:10:40Z</time>
      </trkpt>
      <trkpt lat="44.09736" lon="5.66887">
        <ele>1003.75</ele>
        <time>2020-03-12T13:10:56Z</time>
      </trkpt>
      <trkpt lat="44.09733" lon="5.66887">
        <ele>1003.75</ele>
        <time>2020-03-12T13:11:01Z</time>
      </trkpt>
      <trkpt lat="44.09719" lon="5.66893">
        <ele>1001.35</ele>
        <time>2020-03-12T13:11:19Z</time>
      </trkpt>
      <trkpt lat="44.09698" lon="5.66899">
        <ele>999.43</ele>
        <time>2020-03-12T13:11:38Z</time>
      </trkpt>
      <trkpt lat="44.09677" lon="5.66896">
        <ele>996.54</ele>
        <time>2020-03-12T13:11:59Z</time>
      </trkpt>
      <trkpt lat="44.09668" lon="5.66894">
        <ele>996.06</ele>
        <time>2020-03-12T13:12:09Z</time>
      </trkpt>
      <trkpt lat="44.09662" lon="5.66893">
        <ele>995.58</ele>
        <time>2020-03-12T13:12:14Z</time>
      </trkpt>
      <trkpt lat="44.09658" lon="5.6689">
        <ele>994.62</ele>
        <time>2020-03-12T13:12:28Z</time>
      </trkpt>
      <trkpt lat="44.09654" lon="5.6689">
        <ele>994.14</ele>
        <time>2020-03-12T13:12:34Z</time>
      </trkpt>
      <trkpt lat="44.09649" lon="5.66888">
        <ele>992.7</ele>
        <time>2020-03-12T13:12:39Z</time>
      </trkpt>
      <trkpt lat="44.09632" lon="5.66882">
        <ele>990.78</ele>
        <time>2020-03-12T13:12:56Z</time>
      </trkpt>
      <trkpt lat="44.09622" lon="5.66878">
        <ele>989.33</ele>
        <time>2020-03-12T13:13:08Z</time>
      </trkpt>
      <trkpt lat="44.09601" lon="5.66865">
        <ele>986.93</ele>
        <time>2020-03-12T13:13:27Z</time>
      </trkpt>
      <trkpt lat="44.09585" lon="5.6686">
        <ele>984.05</ele>
        <time>2020-03-12T13:13:47Z</time>
      </trkpt>
      <trkpt lat="44.09572" lon="5.66854">
        <ele>983.09</ele>
        <time>2020-03-12T13:13:59Z</time>
      </trkpt>
      <trkpt lat="44.0957" lon="5.66854">
        <ele>981.64</ele>
        <time>2020-03-12T13:14:01Z</time>
      </trkpt>
      <trkpt lat="44.09548" lon="5.66848">
        <ele>979.24</ele>
        <time>2020-03-12T13:14:20Z</time>
      </trkpt>
      <trkpt lat="44.09538" lon="5.66847">
        <ele>977.8</ele>
        <time>2020-03-12T13:14:34Z</time>
      </trkpt>
      <trkpt lat="44.09517" lon="5.66842">
        <ele>974.43</ele>
        <time>2020-03-12T13:14:54Z</time>
      </trkpt>
      <trkpt lat="44.09499" lon="5.66835">
        <ele>971.55</ele>
        <time>2020-03-12T13:15:12Z</time>
      </trkpt>
      <trkpt lat="44.0948" lon="5.66826">
        <ele>969.15</ele>
        <time>2020-03-12T13:15:29Z</time>
      </trkpt>
      <trkpt lat="44.09458" lon="5.66827">
        <ele>967.22</ele>
        <time>2020-03-12T13:15:49Z</time>
      </trkpt>
      <trkpt lat="44.09441" lon="5.66835">
        <ele>966.74</ele>
        <time>2020-03-12T13:16:05Z</time>
      </trkpt>
      <trkpt lat="44.09428" lon="5.66839">
        <ele>966.74</ele>
        <time>2020-03-12T13:16:19Z</time>
      </trkpt>
      <trkpt lat="44.09414" lon="5.66856">
        <ele>965.78</ele>
        <time>2020-03-12T13:16:38Z</time>
      </trkpt>
      <trkpt lat="44.09404" lon="5.66876">
        <ele>963.38</ele>
        <time>2020-03-12T13:16:57Z</time>
      </trkpt>
      <trkpt lat="44.09395" lon="5.66895">
        <ele>961.46</ele>
        <time>2020-03-12T13:17:13Z</time>
      </trkpt>
      <trkpt lat="44.09388" lon="5.66908">
        <ele>959.05</ele>
        <time>2020-03-12T13:17:28Z</time>
      </trkpt>
      <trkpt lat="44.09377" lon="5.66905">
        <ele>956.65</ele>
        <time>2020-03-12T13:17:46Z</time>
      </trkpt>
      <trkpt lat="44.09374" lon="5.66904">
        <ele>956.17</ele>
        <time>2020-03-12T13:18:01Z</time>
      </trkpt>
      <trkpt lat="44.09367" lon="5.66904">
        <ele>954.25</ele>
        <time>2020-03-12T13:18:14Z</time>
      </trkpt>
      <trkpt lat="44.09359" lon="5.66897">
        <ele>952.32</ele>
        <time>2020-03-12T13:18:28Z</time>
      </trkpt>
      <trkpt lat="44.09357" lon="5.66897">
        <ele>952.32</ele>
        <time>2020-03-12T13:18:41Z</time>
      </trkpt>
      <trkpt lat="44.09361" lon="5.66895">
        <ele>952.32</ele>
        <time>2020-03-12T13:19:03Z</time>
      </trkpt>
      <trkpt lat="44.09349" lon="5.66882">
        <ele>949.92</ele>
        <time>2020-03-12T13:19:20Z</time>
      </trkpt>
      <trkpt lat="44.09342" lon="5.66874">
        <ele>948.48</ele>
        <time>2020-03-12T13:19:36Z</time>
      </trkpt>
      <trkpt lat="44.09342" lon="5.66872">
        <ele>948.48</ele>
        <time>2020-03-12T13:19:53Z</time>
      </trkpt>
      <trkpt lat="44.09332" lon="5.66867">
        <ele>947.52</ele>
        <time>2020-03-12T13:20:11Z</time>
      </trkpt>
      <trkpt lat="44.09326" lon="5.66872">
        <ele>947.04</ele>
        <time>2020-03-12T13:20:23Z</time>
      </trkpt>
      <trkpt lat="44.09322" lon="5.66866">
        <ele>947.04</ele>
        <time>2020-03-12T13:20:36Z</time>
      </trkpt>
      <trkpt lat="44.09322" lon="5.66863">
        <ele>945.59</ele>
        <time>2020-03-12T13:20:39Z</time>
      </trkpt>
      <trkpt lat="44.09316" lon="5.66864">
        <ele>944.63</ele>
        <time>2020-03-12T13:20:52Z</time>
      </trkpt>
      <trkpt lat="44.09314" lon="5.66867">
        <ele>944.63</ele>
        <time>2020-03-12T13:21:05Z</time>
      </trkpt>
      <trkpt lat="44.09319" lon="5.66881">
        <ele>945.59</ele>
        <time>2020-03-12T13:21:23Z</time>
      </trkpt>
      <trkpt lat="44.09324" lon="5.66878">
        <ele>945.59</ele>
        <time>2020-03-12T13:21:40Z</time>
      </trkpt>
      <trkpt lat="44.09322" lon="5.66874">
        <ele>945.59</ele>
        <time>2020-03-12T13:21:43Z</time>
      </trkpt>
      <trkpt lat="44.09314" lon="5.66862">
        <ele>945.59</ele>
        <time>2020-03-12T13:21:58Z</time>
      </trkpt>
      <trkpt lat="44.09308" lon="5.66866">
        <ele>945.11</ele>
        <time>2020-03-12T13:22:10Z</time>
      </trkpt>
      <trkpt lat="44.09305" lon="5.66874">
        <ele>944.15</ele>
        <time>2020-03-12T13:22:18Z</time>
      </trkpt>
      <trkpt lat="44.09303" lon="5.66878">
        <ele>943.67</ele>
        <time>2020-03-12T13:22:38Z</time>
      </trkpt>
      <trkpt lat="44.09312" lon="5.66891">
        <ele>945.59</ele>
        <time>2020-03-12T13:22:54Z</time>
      </trkpt>
      <trkpt lat="44.09314" lon="5.66887">
        <ele>945.59</ele>
        <time>2020-03-12T13:23:08Z</time>
      </trkpt>
      <trkpt lat="44.09306" lon="5.66875">
        <ele>943.67</ele>
        <time>2020-03-12T13:23:22Z</time>
      </trkpt>
      <trkpt lat="44.09305" lon="5.66875">
        <ele>943.67</ele>
        <time>2020-03-12T13:23:23Z</time>
      </trkpt>
      <trkpt lat="44.09305" lon="5.66876">
        <ele>943.19</ele>
        <time>2020-03-12T13:23:36Z</time>
      </trkpt>
      <trkpt lat="44.09314" lon="5.66866">
        <ele>944.63</ele>
        <time>2020-03-12T13:23:49Z</time>
      </trkpt>
      <trkpt lat="44.09313" lon="5.66863">
        <ele>945.11</ele>
        <time>2020-03-12T13:24:10Z</time>
      </trkpt>
      <trkpt lat="44.09314" lon="5.66863">
        <ele>945.11</ele>
        <time>2020-03-12T13:24:12Z</time>
      </trkpt>
      <trkpt lat="44.09325" lon="5.6687">
        <ele>946.56</ele>
        <time>2020-03-12T13:24:29Z</time>
      </trkpt>
      <trkpt lat="44.09326" lon="5.66875">
        <ele>947.52</ele>
        <time>2020-03-12T13:24:42Z</time>
      </trkpt>
      <trkpt lat="44.09325" lon="5.66876">
        <ele>947.52</ele>
        <time>2020-03-12T13:25:00Z</time>
      </trkpt>
      <trkpt lat="44.09323" lon="5.66878">
        <ele>947.52</ele>
        <time>2020-03-12T13:25:25Z</time>
      </trkpt>
      <trkpt lat="44.09327" lon="5.66875">
        <ele>947.52</ele>
        <time>2020-03-12T13:25:46Z</time>
      </trkpt>
      <trkpt lat="44.09327" lon="5.66875">
        <ele>947.52</ele>
        <time>2020-03-12T13:26:03Z</time>
      </trkpt>
      <trkpt lat="44.09327" lon="5.66881">
        <ele>947.04</ele>
        <time>2020-03-12T13:26:17Z</time>
      </trkpt>
      <trkpt lat="44.0933" lon="5.66885">
        <ele>947.04</ele>
        <time>2020-03-12T13:26:38Z</time>
      </trkpt>
      <trkpt lat="44.09324" lon="5.66892">
        <ele>946.07</ele>
        <time>2020-03-12T13:26:50Z</time>
      </trkpt>
      <trkpt lat="44.09307" lon="5.66901">
        <ele>942.71</ele>
        <time>2020-03-12T13:27:06Z</time>
      </trkpt>
      <trkpt lat="44.09304" lon="5.66903">
        <ele>942.71</ele>
        <time>2020-03-12T13:27:09Z</time>
      </trkpt>
      <trkpt lat="44.093" lon="5.66908">
        <ele>941.75</ele>
        <time>2020-03-12T13:27:14Z</time>
      </trkpt>
      <trkpt lat="44.093" lon="5.66915">
        <ele>940.79</ele>
        <time>2020-03-12T13:27:19Z</time>
      </trkpt>
      <trkpt lat="44.093" lon="5.66918">
        <ele>940.79</ele>
        <time>2020-03-12T13:27:21Z</time>
      </trkpt>
      <trkpt lat="44.09301" lon="5.66936">
        <ele>938.38</ele>
        <time>2020-03-12T13:27:34Z</time>
      </trkpt>
      <trkpt lat="44.09301" lon="5.66962">
        <ele>935.5</ele>
        <time>2020-03-12T13:27:52Z</time>
      </trkpt>
      <trkpt lat="44.09301" lon="5.66983">
        <ele>932.62</ele>
        <time>2020-03-12T13:28:09Z</time>
      </trkpt>
      <trkpt lat="44.09296" lon="5.67005">
        <ele>929.25</ele>
        <time>2020-03-12T13:28:25Z</time>
      </trkpt>
      <trkpt lat="44.09287" lon="5.6702">
        <ele>926.85</ele>
        <time>2020-03-12T13:28:41Z</time>
      </trkpt>
      <trkpt lat="44.09275" lon="5.6704">
        <ele>924.45</ele>
        <time>2020-03-12T13:28:58Z</time>
      </trkpt>
      <trkpt lat="44.09273" lon="5.67042">
        <ele>924.45</ele>
        <time>2020-03-12T13:29:01Z</time>
      </trkpt>
      <trkpt lat="44.09265" lon="5.67047">
        <ele>923</ele>
        <time>2020-03-12T13:29:10Z</time>
      </trkpt>
      <trkpt lat="44.09248" lon="5.6704">
        <ele>922.52</ele>
        <time>2020-03-12T13:29:28Z</time>
      </trkpt>
      <trkpt lat="44.09242" lon="5.67036">
        <ele>922.04</ele>
        <time>2020-03-12T13:29:41Z</time>
      </trkpt>
      <trkpt lat="44.09233" lon="5.67011">
        <ele>920.6</ele>
        <time>2020-03-12T13:30:01Z</time>
      </trkpt>
      <trkpt lat="44.09226" lon="5.67006">
        <ele>920.6</ele>
        <time>2020-03-12T13:30:15Z</time>
      </trkpt>
      <trkpt lat="44.09223" lon="5.67009">
        <ele>921.56</ele>
        <time>2020-03-12T13:30:33Z</time>
      </trkpt>
      <trkpt lat="44.09224" lon="5.67005">
        <ele>922.04</ele>
        <time>2020-03-12T13:30:55Z</time>
      </trkpt>
      <trkpt lat="44.09222" lon="5.67008">
        <ele>922.04</ele>
        <time>2020-03-12T13:31:12Z</time>
      </trkpt>
      <trkpt lat="44.09228" lon="5.67005">
        <ele>921.08</ele>
        <time>2020-03-12T13:31:27Z</time>
      </trkpt>
      <trkpt lat="44.09227" lon="5.67006">
        <ele>921.08</ele>
        <time>2020-03-12T13:31:43Z</time>
      </trkpt>
      <trkpt lat="44.09228" lon="5.67004">
        <ele>921.08</ele>
        <time>2020-03-12T13:31:45Z</time>
      </trkpt>
      <trkpt lat="44.09224" lon="5.67004">
        <ele>920.6</ele>
        <time>2020-03-12T13:31:59Z</time>
      </trkpt>
      <trkpt lat="44.09221" lon="5.67003">
        <ele>922.04</ele>
        <time>2020-03-12T13:32:05Z</time>
      </trkpt>
      <trkpt lat="44.09214" lon="5.66996">
        <ele>925.41</ele>
        <time>2020-03-12T13:32:22Z</time>
      </trkpt>
      <trkpt lat="44.0921" lon="5.66988">
        <ele>927.81</ele>
        <time>2020-03-12T13:32:37Z</time>
      </trkpt>
      <trkpt lat="44.09211" lon="5.66988">
        <ele>928.77</ele>
        <time>2020-03-12T13:32:57Z</time>
      </trkpt>
      <trkpt lat="44.09207" lon="5.66981">
        <ele>930.69</ele>
        <time>2020-03-12T13:33:19Z</time>
      </trkpt>
      <trkpt lat="44.09194" lon="5.66967">
        <ele>933.58</ele>
        <time>2020-03-12T13:33:35Z</time>
      </trkpt>
      <trkpt lat="44.09187" lon="5.66952">
        <ele>936.94</ele>
        <time>2020-03-12T13:33:49Z</time>
      </trkpt>
      <trkpt lat="44.09181" lon="5.66951">
        <ele>938.86</ele>
        <time>2020-03-12T13:34:08Z</time>
      </trkpt>
      <trkpt lat="44.09173" lon="5.66943">
        <ele>940.31</ele>
        <time>2020-03-12T13:34:26Z</time>
      </trkpt>
      <trkpt lat="44.09164" lon="5.66932">
        <ele>943.67</ele>
        <time>2020-03-12T13:34:39Z</time>
      </trkpt>
      <trkpt lat="44.09151" lon="5.66916">
        <ele>946.07</ele>
        <time>2020-03-12T13:34:58Z</time>
      </trkpt>
      <trkpt lat="44.0914" lon="5.66905">
        <ele>949.44</ele>
        <time>2020-03-12T13:35:13Z</time>
      </trkpt>
      <trkpt lat="44.09139" lon="5.66901">
        <ele>949.92</ele>
        <time>2020-03-12T13:35:31Z</time>
      </trkpt>
      <trkpt lat="44.09131" lon="5.66896">
        <ele>950.88</ele>
        <time>2020-03-12T13:35:57Z</time>
      </trkpt>
      <trkpt lat="44.0913" lon="5.66888">
        <ele>951.84</ele>
        <time>2020-03-12T13:36:17Z</time>
      </trkpt>
      <trkpt lat="44.09119" lon="5.66879">
        <ele>953.28</ele>
        <time>2020-03-12T13:36:36Z</time>
      </trkpt>
      <trkpt lat="44.09107" lon="5.66864">
        <ele>955.69</ele>
        <time>2020-03-12T13:36:52Z</time>
      </trkpt>
      <trkpt lat="44.09096" lon="5.66855">
        <ele>958.09</ele>
        <time>2020-03-12T13:37:08Z</time>
      </trkpt>
      <trkpt lat="44.09083" lon="5.66846">
        <ele>959.05</ele>
        <time>2020-03-12T13:37:26Z</time>
      </trkpt>
      <trkpt lat="44.09072" lon="5.66838">
        <ele>960.01</ele>
        <time>2020-03-12T13:37:41Z</time>
      </trkpt>
      <trkpt lat="44.09062" lon="5.66827">
        <ele>960.49</ele>
        <time>2020-03-12T13:37:58Z</time>
      </trkpt>
      <trkpt lat="44.09052" lon="5.66819">
        <ele>960.98</ele>
        <time>2020-03-12T13:38:14Z</time>
      </trkpt>
      <trkpt lat="44.09041" lon="5.66812">
        <ele>961.46</ele>
        <time>2020-03-12T13:38:32Z</time>
      </trkpt>
      <trkpt lat="44.09025" lon="5.66803">
        <ele>961.94</ele>
        <time>2020-03-12T13:38:50Z</time>
      </trkpt>
      <trkpt lat="44.09012" lon="5.66797">
        <ele>961.94</ele>
        <time>2020-03-12T13:39:07Z</time>
      </trkpt>
      <trkpt lat="44.08993" lon="5.6679">
        <ele>960.98</ele>
        <time>2020-03-12T13:39:24Z</time>
      </trkpt>
      <trkpt lat="44.08978" lon="5.66786">
        <ele>960.49</ele>
        <time>2020-03-12T13:39:39Z</time>
      </trkpt>
      <trkpt lat="44.08961" lon="5.66785">
        <ele>960.49</ele>
        <time>2020-03-12T13:39:55Z</time>
      </trkpt>
      <trkpt lat="44.08953" lon="5.66785">
        <ele>961.94</ele>
        <time>2020-03-12T13:40:03Z</time>
      </trkpt>
      <trkpt lat="44.08937" lon="5.66788">
        <ele>963.86</ele>
        <time>2020-03-12T13:40:20Z</time>
      </trkpt>
      <trkpt lat="44.08921" lon="5.6679">
        <ele>965.78</ele>
        <time>2020-03-12T13:40:37Z</time>
      </trkpt>
      <trkpt lat="44.08907" lon="5.66787">
        <ele>965.3</ele>
        <time>2020-03-12T13:40:52Z</time>
      </trkpt>
      <trkpt lat="44.08891" lon="5.66785">
        <ele>963.86</ele>
        <time>2020-03-12T13:41:08Z</time>
      </trkpt>
      <trkpt lat="44.08874" lon="5.66789">
        <ele>963.86</ele>
        <time>2020-03-12T13:41:22Z</time>
      </trkpt>
      <trkpt lat="44.0886" lon="5.66793">
        <ele>963.86</ele>
        <time>2020-03-12T13:41:37Z</time>
      </trkpt>
      <trkpt lat="44.08854" lon="5.66795">
        <ele>962.9</ele>
        <time>2020-03-12T13:41:50Z</time>
      </trkpt>
      <trkpt lat="44.08845" lon="5.66798">
        <ele>962.42</ele>
        <time>2020-03-12T13:42:03Z</time>
      </trkpt>
      <trkpt lat="44.08827" lon="5.66801">
        <ele>962.42</ele>
        <time>2020-03-12T13:42:21Z</time>
      </trkpt>
      <trkpt lat="44.0881" lon="5.66804">
        <ele>960.49</ele>
        <time>2020-03-12T13:42:37Z</time>
      </trkpt>
      <trkpt lat="44.08793" lon="5.66808">
        <ele>959.05</ele>
        <time>2020-03-12T13:42:54Z</time>
      </trkpt>
      <trkpt lat="44.08773" lon="5.6681">
        <ele>957.61</ele>
        <time>2020-03-12T13:43:10Z</time>
      </trkpt>
      <trkpt lat="44.08754" lon="5.66816">
        <ele>957.13</ele>
        <time>2020-03-12T13:43:27Z</time>
      </trkpt>
      <trkpt lat="44.08748" lon="5.66818">
        <ele>957.13</ele>
        <time>2020-03-12T13:43:32Z</time>
      </trkpt>
      <trkpt lat="44.08732" lon="5.66827">
        <ele>956.65</ele>
        <time>2020-03-12T13:43:48Z</time>
      </trkpt>
      <trkpt lat="44.08714" lon="5.66839">
        <ele>955.69</ele>
        <time>2020-03-12T13:44:06Z</time>
      </trkpt>
      <trkpt lat="44.08699" lon="5.66851">
        <ele>954.73</ele>
        <time>2020-03-12T13:44:23Z</time>
      </trkpt>
      <trkpt lat="44.08694" lon="5.66861">
        <ele>956.17</ele>
        <time>2020-03-12T13:44:32Z</time>
      </trkpt>
      <trkpt lat="44.0869" lon="5.66877">
        <ele>959.53</ele>
        <time>2020-03-12T13:44:47Z</time>
      </trkpt>
      <trkpt lat="44.08678" lon="5.66894">
        <ele>960.49</ele>
        <time>2020-03-12T13:45:05Z</time>
      </trkpt>
      <trkpt lat="44.08667" lon="5.66911">
        <ele>962.42</ele>
        <time>2020-03-12T13:45:23Z</time>
      </trkpt>
      <trkpt lat="44.08658" lon="5.66924">
        <ele>964.34</ele>
        <time>2020-03-12T13:45:39Z</time>
      </trkpt>
      <trkpt lat="44.08645" lon="5.66937">
        <ele>965.78</ele>
        <time>2020-03-12T13:45:57Z</time>
      </trkpt>
      <trkpt lat="44.08642" lon="5.66943">
        <ele>966.74</ele>
        <time>2020-03-12T13:46:14Z</time>
      </trkpt>
      <trkpt lat="44.08637" lon="5.66948">
        <ele>966.74</ele>
        <time>2020-03-12T13:46:26Z</time>
      </trkpt>
      <trkpt lat="44.08629" lon="5.66954">
        <ele>967.22</ele>
        <time>2020-03-12T13:46:41Z</time>
      </trkpt>
      <trkpt lat="44.08619" lon="5.66967">
        <ele>968.67</ele>
        <time>2020-03-12T13:46:56Z</time>
      </trkpt>
      <trkpt lat="44.08608" lon="5.66981">
        <ele>970.11</ele>
        <time>2020-03-12T13:47:12Z</time>
      </trkpt>
      <trkpt lat="44.08596" lon="5.66996">
        <ele>971.55</ele>
        <time>2020-03-12T13:47:28Z</time>
      </trkpt>
      <trkpt lat="44.08585" lon="5.67009">
        <ele>973.47</ele>
        <time>2020-03-12T13:47:42Z</time>
      </trkpt>
      <trkpt lat="44.08579" lon="5.67024">
        <ele>974.43</ele>
        <time>2020-03-12T13:47:58Z</time>
      </trkpt>
      <trkpt lat="44.08574" lon="5.6704">
        <ele>976.36</ele>
        <time>2020-03-12T13:48:13Z</time>
      </trkpt>
      <trkpt lat="44.08564" lon="5.67062">
        <ele>977.32</ele>
        <time>2020-03-12T13:48:31Z</time>
      </trkpt>
      <trkpt lat="44.08553" lon="5.67083">
        <ele>977.8</ele>
        <time>2020-03-12T13:48:49Z</time>
      </trkpt>
      <trkpt lat="44.08549" lon="5.67098">
        <ele>977.32</ele>
        <time>2020-03-12T13:49:03Z</time>
      </trkpt>
      <trkpt lat="44.08541" lon="5.67123">
        <ele>977.8</ele>
        <time>2020-03-12T13:49:20Z</time>
      </trkpt>
      <trkpt lat="44.08535" lon="5.67139">
        <ele>977.8</ele>
        <time>2020-03-12T13:49:33Z</time>
      </trkpt>
      <trkpt lat="44.08534" lon="5.67147">
        <ele>977.8</ele>
        <time>2020-03-12T13:49:39Z</time>
      </trkpt>
      <trkpt lat="44.08533" lon="5.67169">
        <ele>979.72</ele>
        <time>2020-03-12T13:49:55Z</time>
      </trkpt>
      <trkpt lat="44.0853" lon="5.6718">
        <ele>980.2</ele>
        <time>2020-03-12T13:50:12Z</time>
      </trkpt>
      <trkpt lat="44.08529" lon="5.6719">
        <ele>980.68</ele>
        <time>2020-03-12T13:50:31Z</time>
      </trkpt>
      <trkpt lat="44.08528" lon="5.67193">
        <ele>980.68</ele>
        <time>2020-03-12T13:50:34Z</time>
      </trkpt>
      <trkpt lat="44.08525" lon="5.67206">
        <ele>982.12</ele>
        <time>2020-03-12T13:50:50Z</time>
      </trkpt>
      <trkpt lat="44.08521" lon="5.67226">
        <ele>983.09</ele>
        <time>2020-03-12T13:51:06Z</time>
      </trkpt>
      <trkpt lat="44.08518" lon="5.67248">
        <ele>983.57</ele>
        <time>2020-03-12T13:51:22Z</time>
      </trkpt>
      <trkpt lat="44.08514" lon="5.67269">
        <ele>985.49</ele>
        <time>2020-03-12T13:51:39Z</time>
      </trkpt>
      <trkpt lat="44.0851" lon="5.67289">
        <ele>986.45</ele>
        <time>2020-03-12T13:51:55Z</time>
      </trkpt>
      <trkpt lat="44.0851" lon="5.67308">
        <ele>987.41</ele>
        <time>2020-03-12T13:52:09Z</time>
      </trkpt>
      <trkpt lat="44.08512" lon="5.67327">
        <ele>988.85</ele>
        <time>2020-03-12T13:52:23Z</time>
      </trkpt>
      <trkpt lat="44.08516" lon="5.67351">
        <ele>989.81</ele>
        <time>2020-03-12T13:52:41Z</time>
      </trkpt>
      <trkpt lat="44.08516" lon="5.6736">
        <ele>990.3</ele>
        <time>2020-03-12T13:52:48Z</time>
      </trkpt>
      <trkpt lat="44.08519" lon="5.67381">
        <ele>988.85</ele>
        <time>2020-03-12T13:53:04Z</time>
      </trkpt>
      <trkpt lat="44.08525" lon="5.67393">
        <ele>988.85</ele>
        <time>2020-03-12T13:53:22Z</time>
      </trkpt>
      <trkpt lat="44.08525" lon="5.67396">
        <ele>988.85</ele>
        <time>2020-03-12T13:53:36Z</time>
      </trkpt>
      <trkpt lat="44.08525" lon="5.67397">
        <ele>988.85</ele>
        <time>2020-03-12T13:53:56Z</time>
      </trkpt>
      <trkpt lat="44.08524" lon="5.67396">
        <ele>988.85</ele>
        <time>2020-03-12T13:54:19Z</time>
      </trkpt>
      <trkpt lat="44.08528" lon="5.67398">
        <ele>988.85</ele>
        <time>2020-03-12T13:54:41Z</time>
      </trkpt>
      <trkpt lat="44.08523" lon="5.67401">
        <ele>988.85</ele>
        <time>2020-03-12T13:55:11Z</time>
      </trkpt>
      <trkpt lat="44.08525" lon="5.674">
        <ele>988.85</ele>
        <time>2020-03-12T13:55:34Z</time>
      </trkpt>
      <trkpt lat="44.08527" lon="5.67405">
        <ele>988.85</ele>
        <time>2020-03-12T13:55:47Z</time>
      </trkpt>
      <trkpt lat="44.08527" lon="5.67403">
        <ele>988.85</ele>
        <time>2020-03-12T13:56:06Z</time>
      </trkpt>
      <trkpt lat="44.08525" lon="5.67402">
        <ele>988.85</ele>
        <time>2020-03-12T13:56:24Z</time>
      </trkpt>
      <trkpt lat="44.08531" lon="5.67412">
        <ele>988.85</ele>
        <time>2020-03-12T13:56:41Z</time>
      </trkpt>
      <trkpt lat="44.08533" lon="5.67415">
        <ele>988.85</ele>
        <time>2020-03-12T13:56:45Z</time>
      </trkpt>
      <trkpt lat="44.08544" lon="5.67437">
        <ele>988.85</ele>
        <time>2020-03-12T13:57:03Z</time>
      </trkpt>
      <trkpt lat="44.08551" lon="5.67449">
        <ele>988.85</ele>
        <time>2020-03-12T13:57:14Z</time>
      </trkpt>
      <trkpt lat="44.08552" lon="5.67451">
        <ele>990.3</ele>
        <time>2020-03-12T13:57:16Z</time>
      </trkpt>
      <trkpt lat="44.08559" lon="5.67464">
        <ele>990.3</ele>
        <time>2020-03-12T13:57:26Z</time>
      </trkpt>
      <trkpt lat="44.08568" lon="5.67485">
        <ele>990.3</ele>
        <time>2020-03-12T13:57:43Z</time>
      </trkpt>
      <trkpt lat="44.08575" lon="5.67504">
        <ele>990.3</ele>
        <time>2020-03-12T13:57:57Z</time>
      </trkpt>
      <trkpt lat="44.08583" lon="5.67529">
        <ele>988.85</ele>
        <time>2020-03-12T13:58:14Z</time>
      </trkpt>
      <trkpt lat="44.08583" lon="5.6753">
        <ele>988.85</ele>
        <time>2020-03-12T13:58:15Z</time>
      </trkpt>
      <trkpt lat="44.0859" lon="5.67556">
        <ele>986.45</ele>
        <time>2020-03-12T13:58:32Z</time>
      </trkpt>
      <trkpt lat="44.08593" lon="5.67564">
        <ele>985.97</ele>
        <time>2020-03-12T13:58:38Z</time>
      </trkpt>
      <trkpt lat="44.08595" lon="5.67576">
        <ele>985.49</ele>
        <time>2020-03-12T13:58:46Z</time>
      </trkpt>
      <trkpt lat="44.086" lon="5.67588">
        <ele>985.01</ele>
        <time>2020-03-12T13:58:54Z</time>
      </trkpt>
      <trkpt lat="44.08609" lon="5.67612">
        <ele>983.57</ele>
        <time>2020-03-12T13:59:11Z</time>
      </trkpt>
      <trkpt lat="44.08613" lon="5.67631">
        <ele>982.12</ele>
        <time>2020-03-12T13:59:24Z</time>
      </trkpt>
      <trkpt lat="44.08619" lon="5.67658">
        <ele>979.24</ele>
        <time>2020-03-12T13:59:43Z</time>
      </trkpt>
      <trkpt lat="44.08625" lon="5.6768">
        <ele>977.8</ele>
        <time>2020-03-12T13:59:59Z</time>
      </trkpt>
      <trkpt lat="44.08631" lon="5.67706">
        <ele>975.88</ele>
        <time>2020-03-12T14:00:15Z</time>
      </trkpt>
      <trkpt lat="44.08639" lon="5.67727">
        <ele>974.43</ele>
        <time>2020-03-12T14:00:31Z</time>
      </trkpt>
      <trkpt lat="44.08648" lon="5.67747">
        <ele>972.99</ele>
        <time>2020-03-12T14:00:45Z</time>
      </trkpt>
      <trkpt lat="44.08658" lon="5.67768">
        <ele>971.07</ele>
        <time>2020-03-12T14:01:01Z</time>
      </trkpt>
      <trkpt lat="44.08663" lon="5.67777">
        <ele>970.59</ele>
        <time>2020-03-12T14:01:08Z</time>
      </trkpt>
      <trkpt lat="44.08676" lon="5.67796">
        <ele>969.15</ele>
        <time>2020-03-12T14:01:25Z</time>
      </trkpt>
      <trkpt lat="44.08686" lon="5.67811">
        <ele>967.7</ele>
        <time>2020-03-12T14:01:40Z</time>
      </trkpt>
      <trkpt lat="44.08699" lon="5.67831">
        <ele>965.78</ele>
        <time>2020-03-12T14:01:58Z</time>
      </trkpt>
      <trkpt lat="44.08714" lon="5.67848">
        <ele>963.86</ele>
        <time>2020-03-12T14:02:15Z</time>
      </trkpt>
      <trkpt lat="44.08726" lon="5.67864">
        <ele>961.46</ele>
        <time>2020-03-12T14:02:31Z</time>
      </trkpt>
      <trkpt lat="44.08737" lon="5.67886">
        <ele>958.57</ele>
        <time>2020-03-12T14:02:49Z</time>
      </trkpt>
      <trkpt lat="44.08746" lon="5.67908">
        <ele>957.13</ele>
        <time>2020-03-12T14:03:08Z</time>
      </trkpt>
      <trkpt lat="44.08754" lon="5.67932">
        <ele>954.25</ele>
        <time>2020-03-12T14:03:25Z</time>
      </trkpt>
      <trkpt lat="44.08762" lon="5.67944">
        <ele>952.32</ele>
        <time>2020-03-12T14:03:38Z</time>
      </trkpt>
      <trkpt lat="44.08772" lon="5.67961">
        <ele>950.4</ele>
        <time>2020-03-12T14:03:55Z</time>
      </trkpt>
      <trkpt lat="44.0878" lon="5.67978">
        <ele>948</ele>
        <time>2020-03-12T14:04:09Z</time>
      </trkpt>
      <trkpt lat="44.0879" lon="5.67996">
        <ele>945.59</ele>
        <time>2020-03-12T14:04:26Z</time>
      </trkpt>
      <trkpt lat="44.08803" lon="5.68013">
        <ele>942.71</ele>
        <time>2020-03-12T14:04:42Z</time>
      </trkpt>
      <trkpt lat="44.08815" lon="5.68027">
        <ele>940.79</ele>
        <time>2020-03-12T14:04:58Z</time>
      </trkpt>
      <trkpt lat="44.08826" lon="5.68041">
        <ele>937.9</ele>
        <time>2020-03-12T14:05:13Z</time>
      </trkpt>
      <trkpt lat="44.08836" lon="5.68052">
        <ele>935.02</ele>
        <time>2020-03-12T14:05:27Z</time>
      </trkpt>
      <trkpt lat="44.08853" lon="5.68062">
        <ele>932.62</ele>
        <time>2020-03-12T14:05:43Z</time>
      </trkpt>
      <trkpt lat="44.08864" lon="5.68076">
        <ele>929.73</ele>
        <time>2020-03-12T14:05:59Z</time>
      </trkpt>
      <trkpt lat="44.08871" lon="5.68089">
        <ele>926.37</ele>
        <time>2020-03-12T14:06:14Z</time>
      </trkpt>
      <trkpt lat="44.0888" lon="5.68101">
        <ele>923</ele>
        <time>2020-03-12T14:06:30Z</time>
      </trkpt>
      <trkpt lat="44.08889" lon="5.68116">
        <ele>920.6</ele>
        <time>2020-03-12T14:06:46Z</time>
      </trkpt>
      <trkpt lat="44.08905" lon="5.68127">
        <ele>917.72</ele>
        <time>2020-03-12T14:07:02Z</time>
      </trkpt>
      <trkpt lat="44.08915" lon="5.68135">
        <ele>914.83</ele>
        <time>2020-03-12T14:07:17Z</time>
      </trkpt>
      <trkpt lat="44.08925" lon="5.68145">
        <ele>911.47</ele>
        <time>2020-03-12T14:07:34Z</time>
      </trkpt>
      <trkpt lat="44.08927" lon="5.6816">
        <ele>910.03</ele>
        <time>2020-03-12T14:07:50Z</time>
      </trkpt>
      <trkpt lat="44.08929" lon="5.68164">
        <ele>908.58</ele>
        <time>2020-03-12T14:07:54Z</time>
      </trkpt>
      <trkpt lat="44.0894" lon="5.68184">
        <ele>907.62</ele>
        <time>2020-03-12T14:08:12Z</time>
      </trkpt>
      <trkpt lat="44.08934" lon="5.68176">
        <ele>907.62</ele>
        <time>2020-03-12T14:08:28Z</time>
      </trkpt>
      <trkpt lat="44.08929" lon="5.68162">
        <ele>908.58</ele>
        <time>2020-03-12T14:08:47Z</time>
      </trkpt>
      <trkpt lat="44.08929" lon="5.68161">
        <ele>908.58</ele>
        <time>2020-03-12T14:09:05Z</time>
      </trkpt>
      <trkpt lat="44.08926" lon="5.6816">
        <ele>909.06</ele>
        <time>2020-03-12T14:09:35Z</time>
      </trkpt>
      <trkpt lat="44.08929" lon="5.68161">
        <ele>909.06</ele>
        <time>2020-03-12T14:09:54Z</time>
      </trkpt>
      <trkpt lat="44.08931" lon="5.68169">
        <ele>909.06</ele>
        <time>2020-03-12T14:10:12Z</time>
      </trkpt>
      <trkpt lat="44.08933" lon="5.68173">
        <ele>908.1</ele>
        <time>2020-03-12T14:10:17Z</time>
      </trkpt>
      <trkpt lat="44.08939" lon="5.68181">
        <ele>908.1</ele>
        <time>2020-03-12T14:10:35Z</time>
      </trkpt>
      <trkpt lat="44.08947" lon="5.68198">
        <ele>907.62</ele>
        <time>2020-03-12T14:10:48Z</time>
      </trkpt>
      <trkpt lat="44.08954" lon="5.68209">
        <ele>907.62</ele>
        <time>2020-03-12T14:11:05Z</time>
      </trkpt>
      <trkpt lat="44.08951" lon="5.68209">
        <ele>907.62</ele>
        <time>2020-03-12T14:11:28Z</time>
      </trkpt>
      <trkpt lat="44.08961" lon="5.68224">
        <ele>907.62</ele>
        <time>2020-03-12T14:11:48Z</time>
      </trkpt>
      <trkpt lat="44.08968" lon="5.68243">
        <ele>907.14</ele>
        <time>2020-03-12T14:12:03Z</time>
      </trkpt>
      <trkpt lat="44.08971" lon="5.68252">
        <ele>906.18</ele>
        <time>2020-03-12T14:12:22Z</time>
      </trkpt>
      <trkpt lat="44.08969" lon="5.68273">
        <ele>904.74</ele>
        <time>2020-03-12T14:12:39Z</time>
      </trkpt>
      <trkpt lat="44.08969" lon="5.68287">
        <ele>902.82</ele>
        <time>2020-03-12T14:12:53Z</time>
      </trkpt>
      <trkpt lat="44.08969" lon="5.68311">
        <ele>901.85</ele>
        <time>2020-03-12T14:13:10Z</time>
      </trkpt>
      <trkpt lat="44.08975" lon="5.68333">
        <ele>899.45</ele>
        <time>2020-03-12T14:13:26Z</time>
      </trkpt>
      <trkpt lat="44.08982" lon="5.68344">
        <ele>898.49</ele>
        <time>2020-03-12T14:13:38Z</time>
      </trkpt>
      <trkpt lat="44.08989" lon="5.6836">
        <ele>897.05</ele>
        <time>2020-03-12T14:13:52Z</time>
      </trkpt>
      <trkpt lat="44.08997" lon="5.68379">
        <ele>894.16</ele>
        <time>2020-03-12T14:14:08Z</time>
      </trkpt>
      <trkpt lat="44.09005" lon="5.68396">
        <ele>892.24</ele>
        <time>2020-03-12T14:14:23Z</time>
      </trkpt>
      <trkpt lat="44.0901" lon="5.68405">
        <ele>891.76</ele>
        <time>2020-03-12T14:14:40Z</time>
      </trkpt>
      <trkpt lat="44.0901" lon="5.68415">
        <ele>890.8</ele>
        <time>2020-03-12T14:14:59Z</time>
      </trkpt>
      <trkpt lat="44.09012" lon="5.68418">
        <ele>890.8</ele>
        <time>2020-03-12T14:15:16Z</time>
      </trkpt>
      <trkpt lat="44.09014" lon="5.68428">
        <ele>889.36</ele>
        <time>2020-03-12T14:15:33Z</time>
      </trkpt>
      <trkpt lat="44.09019" lon="5.6845">
        <ele>885.99</ele>
        <time>2020-03-12T14:15:51Z</time>
      </trkpt>
      <trkpt lat="44.0902" lon="5.68451">
        <ele>886.47</ele>
        <time>2020-03-12T14:15:52Z</time>
      </trkpt>
      <trkpt lat="44.09028" lon="5.68471">
        <ele>884.07</ele>
        <time>2020-03-12T14:16:07Z</time>
      </trkpt>
      <trkpt lat="44.09034" lon="5.6849">
        <ele>883.11</ele>
        <time>2020-03-12T14:16:21Z</time>
      </trkpt>
      <trkpt lat="44.09038" lon="5.68507">
        <ele>881.67</ele>
        <time>2020-03-12T14:16:38Z</time>
      </trkpt>
      <trkpt lat="44.09049" lon="5.68527">
        <ele>879.74</ele>
        <time>2020-03-12T14:16:54Z</time>
      </trkpt>
      <trkpt lat="44.09062" lon="5.68544">
        <ele>878.78</ele>
        <time>2020-03-12T14:17:08Z</time>
      </trkpt>
      <trkpt lat="44.09076" lon="5.68571">
        <ele>876.38</ele>
        <time>2020-03-12T14:17:29Z</time>
      </trkpt>
      <trkpt lat="44.0908" lon="5.68594">
        <ele>874.94</ele>
        <time>2020-03-12T14:17:44Z</time>
      </trkpt>
      <trkpt lat="44.09084" lon="5.68618">
        <ele>873.98</ele>
        <time>2020-03-12T14:18:00Z</time>
      </trkpt>
      <trkpt lat="44.09092" lon="5.68643">
        <ele>873.01</ele>
        <time>2020-03-12T14:18:17Z</time>
      </trkpt>
      <trkpt lat="44.09096" lon="5.68672">
        <ele>871.57</ele>
        <time>2020-03-12T14:18:35Z</time>
      </trkpt>
      <trkpt lat="44.09096" lon="5.68673">
        <ele>871.57</ele>
        <time>2020-03-12T14:18:43Z</time>
      </trkpt>
      <trkpt lat="44.09093" lon="5.68665">
        <ele>871.57</ele>
        <time>2020-03-12T14:18:48Z</time>
      </trkpt>
      <trkpt lat="44.09075" lon="5.68654">
        <ele>870.61</ele>
        <time>2020-03-12T14:19:05Z</time>
      </trkpt>
      <trkpt lat="44.09061" lon="5.6864">
        <ele>869.65</ele>
        <time>2020-03-12T14:19:22Z</time>
      </trkpt>
      <trkpt lat="44.09051" lon="5.6863">
        <ele>868.69</ele>
        <time>2020-03-12T14:19:37Z</time>
      </trkpt>
      <trkpt lat="44.0905" lon="5.68626">
        <ele>868.21</ele>
        <time>2020-03-12T14:19:52Z</time>
      </trkpt>
      <trkpt lat="44.09055" lon="5.68619">
        <ele>868.21</ele>
        <time>2020-03-12T14:20:06Z</time>
      </trkpt>
      <trkpt lat="44.09056" lon="5.68627">
        <ele>868.21</ele>
        <time>2020-03-12T14:20:21Z</time>
      </trkpt>
      <trkpt lat="44.09054" lon="5.68631">
        <ele>868.21</ele>
        <time>2020-03-12T14:20:48Z</time>
      </trkpt>
      <trkpt lat="44.09062" lon="5.68636">
        <ele>869.65</ele>
        <time>2020-03-12T14:21:02Z</time>
      </trkpt>
      <trkpt lat="44.09073" lon="5.68655">
        <ele>870.13</ele>
        <time>2020-03-12T14:21:19Z</time>
      </trkpt>
      <trkpt lat="44.09081" lon="5.68658">
        <ele>870.13</ele>
        <time>2020-03-12T14:21:33Z</time>
      </trkpt>
      <trkpt lat="44.09094" lon="5.68668">
        <ele>871.09</ele>
        <time>2020-03-12T14:21:49Z</time>
      </trkpt>
      <trkpt lat="44.09099" lon="5.68693">
        <ele>872.53</ele>
        <time>2020-03-12T14:22:10Z</time>
      </trkpt>
      <trkpt lat="44.09099" lon="5.6871">
        <ele>873.01</ele>
        <time>2020-03-12T14:22:23Z</time>
      </trkpt>
      <trkpt lat="44.09099" lon="5.68713">
        <ele>873.01</ele>
        <time>2020-03-12T14:22:25Z</time>
      </trkpt>
      <trkpt lat="44.09099" lon="5.68725">
        <ele>873.98</ele>
        <time>2020-03-12T14:22:33Z</time>
      </trkpt>
      <trkpt lat="44.091" lon="5.68758">
        <ele>875.9</ele>
        <time>2020-03-12T14:22:54Z</time>
      </trkpt>
      <trkpt lat="44.09105" lon="5.68784">
        <ele>877.82</ele>
        <time>2020-03-12T14:23:12Z</time>
      </trkpt>
      <trkpt lat="44.09108" lon="5.68801">
        <ele>878.78</ele>
        <time>2020-03-12T14:23:27Z</time>
      </trkpt>
      <trkpt lat="44.09108" lon="5.68807">
        <ele>878.78</ele>
        <time>2020-03-12T14:23:48Z</time>
      </trkpt>
      <trkpt lat="44.0911" lon="5.68813">
        <ele>878.78</ele>
        <time>2020-03-12T14:24:02Z</time>
      </trkpt>
      <trkpt lat="44.0911" lon="5.68814">
        <ele>879.26</ele>
        <time>2020-03-12T14:24:22Z</time>
      </trkpt>
      <trkpt lat="44.09109" lon="5.68813">
        <ele>879.26</ele>
        <time>2020-03-12T14:24:41Z</time>
      </trkpt>
      <trkpt lat="44.09112" lon="5.68812">
        <ele>879.26</ele>
        <time>2020-03-12T14:25:05Z</time>
      </trkpt>
      <trkpt lat="44.09121" lon="5.68819">
        <ele>879.74</ele>
        <time>2020-03-12T14:25:25Z</time>
      </trkpt>
      <trkpt lat="44.09128" lon="5.68828">
        <ele>880.71</ele>
        <time>2020-03-12T14:25:42Z</time>
      </trkpt>
      <trkpt lat="44.09126" lon="5.68845">
        <ele>880.71</ele>
        <time>2020-03-12T14:25:57Z</time>
      </trkpt>
      <trkpt lat="44.09116" lon="5.6887">
        <ele>880.22</ele>
        <time>2020-03-12T14:26:16Z</time>
      </trkpt>
      <trkpt lat="44.09109" lon="5.68884">
        <ele>879.26</ele>
        <time>2020-03-12T14:26:27Z</time>
      </trkpt>
      <trkpt lat="44.09096" lon="5.68913">
        <ele>878.3</ele>
        <time>2020-03-12T14:26:50Z</time>
      </trkpt>
      <trkpt lat="44.09082" lon="5.68943">
        <ele>877.34</ele>
        <time>2020-03-12T14:27:13Z</time>
      </trkpt>
      <trkpt lat="44.09072" lon="5.68966">
        <ele>876.86</ele>
        <time>2020-03-12T14:27:32Z</time>
      </trkpt>
      <trkpt lat="44.09064" lon="5.6898">
        <ele>876.86</ele>
        <time>2020-03-12T14:27:49Z</time>
      </trkpt>
      <trkpt lat="44.09064" lon="5.68984">
        <ele>876.86</ele>
        <time>2020-03-12T14:27:52Z</time>
      </trkpt>
      <trkpt lat="44.09057" lon="5.69001">
        <ele>876.86</ele>
        <time>2020-03-12T14:28:11Z</time>
      </trkpt>
      <trkpt lat="44.09053" lon="5.69009">
        <ele>876.86</ele>
        <time>2020-03-12T14:28:23Z</time>
      </trkpt>
      <trkpt lat="44.09051" lon="5.69013">
        <ele>876.86</ele>
        <time>2020-03-12T14:28:26Z</time>
      </trkpt>
      <trkpt lat="44.09043" lon="5.69011">
        <ele>876.38</ele>
        <time>2020-03-12T14:28:39Z</time>
      </trkpt>
      <trkpt lat="44.09043" lon="5.69028">
        <ele>876.38</ele>
        <time>2020-03-12T14:28:52Z</time>
      </trkpt>
      <trkpt lat="44.09036" lon="5.69046">
        <ele>875.9</ele>
        <time>2020-03-12T14:29:06Z</time>
      </trkpt>
      <trkpt lat="44.09027" lon="5.69066">
        <ele>875.9</ele>
        <time>2020-03-12T14:29:24Z</time>
      </trkpt>
      <trkpt lat="44.09024" lon="5.6909">
        <ele>875.9</ele>
        <time>2020-03-12T14:29:41Z</time>
      </trkpt>
      <trkpt lat="44.09023" lon="5.69091">
        <ele>875.9</ele>
        <time>2020-03-12T14:29:56Z</time>
      </trkpt>
      <trkpt lat="44.09025" lon="5.69094">
        <ele>876.38</ele>
        <time>2020-03-12T14:30:16Z</time>
      </trkpt>
      <trkpt lat="44.09023" lon="5.69095">
        <ele>877.82</ele>
        <time>2020-03-12T14:30:22Z</time>
      </trkpt>
      <trkpt lat="44.09022" lon="5.69096">
        <ele>876.38</ele>
        <time>2020-03-12T14:30:29Z</time>
      </trkpt>
      <trkpt lat="44.09022" lon="5.69096">
        <ele>876.38</ele>
        <time>2020-03-12T14:30:48Z</time>
      </trkpt>
      <trkpt lat="44.09023" lon="5.69095">
        <ele>877.34</ele>
        <time>2020-03-12T14:31:13Z</time>
      </trkpt>
      <trkpt lat="44.09023" lon="5.69096">
        <ele>877.34</ele>
        <time>2020-03-12T14:31:31Z</time>
      </trkpt>
    </trkseg>
  </trk>
</gpx>